Wetterdaten: Freitag, 14.01.2022
Datum Zeit Temp. Aussen Temp. o. S. Temp +5cm Feuchte Auss Luftdruck Regen Sonnenschein Regendauer Solar Windben Empfang
14.01.2022 00:00 1,7 C 1,1 C 1,1 C 98 % 1039,1 hPa 0,0 l/m 0 min 0 min 0 W/m 3,2 km/h (1 Bft) 95,92 %
14.01.2022 00:02 1,7 C 1,1 C 1,1 C 98 % 1039,0 hPa 0,0 l/m 0 min 0 min 0 W/m 6,4 km/h (2 Bft) 93,02 %
14.01.2022 00:04 1,7 C 1,1 C 1,1 C 98 % 1038,9 hPa 0,0 l/m 0 min 0 min 0 W/m 3,2 km/h (1 Bft) 97,87 %
14.01.2022 00:08 1,6 C 1,1 C 1,1 C 98 % 1038,9 hPa 0,0 l/m 0 min 0 min 0 W/m 6,4 km/h (2 Bft) 96,34 %
14.01.2022 00:10 1,6 C 1,1 C 1,1 C 98 % 1038,8 hPa 0,0 l/m 0 min 0 min 0 W/m 3,2 km/h (1 Bft) 95,74 %
14.01.2022 00:12 1,6 C 1,1 C 1,1 C 98 % 1038,9 hPa 0,0 l/m 0 min 0 min 0 W/m 6,4 km/h (2 Bft) 95,65 %
14.01.2022 00:14 1,6 C 1,1 C 1,1 C 98 % 1038,8 hPa 0,0 l/m 0 min 0 min 0 W/m 6,4 km/h (2 Bft) 95,74 %
14.01.2022 00:16 1,6 C 1,1 C 1,1 C 98 % 1038,8 hPa 0,0 l/m 0 min 0 min 0 W/m 12,9 km/h (3 Bft) 94,55 %
14.01.2022 00:18 1,6 C 1,1 C 1,1 C 98 % 1038,7 hPa 0,0 l/m 0 min 0 min 0 W/m 12,9 km/h (3 Bft) 95,74 %
14.01.2022 00:20 1,6 C 1,1 C 1,1 C 98 % 1038,7 hPa 0,0 l/m 0 min 0 min 0 W/m 6,4 km/h (2 Bft) 94,00 %
14.01.2022 00:22 1,6 C 1,1 C 1,1 C 98 % 1038,7 hPa 0,0 l/m 0 min 0 min 0 W/m 19,3 km/h (3 Bft) 93,62 %
14.01.2022 00:24 1,6 C 1,1 C 1,1 C 98 % 1038,8 hPa 0,0 l/m 0 min 0 min 0 W/m 6,4 km/h (2 Bft) 97,14 %
14.01.2022 00:26 1,6 C 1,1 C 1,1 C 98 % 1038,7 hPa 0,0 l/m 0 min 0 min 0 W/m 6,4 km/h (2 Bft) 93,62 %
14.01.2022 00:28 1,6 C 1,1 C 1,1 C 98 % 1038,7 hPa 0,0 l/m 0 min 0 min 0 W/m 6,4 km/h (2 Bft) 95,74 %
14.01.2022 00:30 1,6 C 1,1 C 1,1 C 98 % 1038,6 hPa 0,0 l/m 0 min 0 min 0 W/m 6,4 km/h (2 Bft) 93,62 %
14.01.2022 00:32 1,6 C 1,1 C 1,1 C 99 % 1038,6 hPa 0,0 l/m 0 min 0 min 0 W/m 6,4 km/h (2 Bft) 96,23 %
14.01.2022 00:34 1,6 C 1,1 C 1,1 C 98 % 1038,5 hPa 0,0 l/m 0 min 0 min 0 W/m 12,9 km/h (3 Bft) 93,48 %
14.01.2022 00:36 1,6 C 1,1 C 1,1 C 98 % 1038,5 hPa 0,0 l/m 0 min 0 min 0 W/m 16,1 km/h (3 Bft) 93,62 %
14.01.2022 00:38 1,6 C 1,1 C 1,1 C 99 % 1038,6 hPa 0,0 l/m 0 min 0 min 0 W/m 9,7 km/h (2 Bft) 97,87 %
14.01.2022 00:40 1,6 C 1,1 C 1,1 C 99 % 1038,5 hPa 0,0 l/m 0 min 0 min 0 W/m 6,4 km/h (2 Bft) 93,62 %
14.01.2022 00:42 1,6 C 1,1 C 1,1 C 99 % 1038,5 hPa 0,0 l/m 0 min 0 min 0 W/m 9,7 km/h (2 Bft) 95,74 %
14.01.2022 00:44 1,6 C 1,1 C 1,1 C 99 % 1038,5 hPa 0,0 l/m 0 min 0 min 0 W/m 6,4 km/h (2 Bft) 95,74 %
14.01.2022 00:46 1,5 C 1,1 C 1,1 C 99 % 1038,5 hPa 0,0 l/m 0 min 0 min 0 W/m 6,4 km/h (2 Bft) 95,92 %
14.01.2022 00:48 1,5 C 1,1 C 1,1 C 99 % 1038,4 hPa 0,0 l/m 0 min 0 min 0 W/m 3,2 km/h (1 Bft) 95,74 %
14.01.2022 00:50 1,6 C 1,1 C 1,1 C 99 % 1038,4 hPa 0,0 l/m 0 min 0 min 0 W/m 6,4 km/h (2 Bft) 97,87 %
14.01.2022 00:52 1,6 C 1,1 C 1,1 C 99 % 1038,5 hPa 0,0 l/m 0 min 0 min 0 W/m 6,4 km/h (2 Bft) 97,87 %
14.01.2022 00:54 1,6 C 1,1 C 1,1 C 99 % 1038,4 hPa 0,0 l/m 0 min 0 min 0 W/m 3,2 km/h (1 Bft) 95,92 %
14.01.2022 00:56 1,6 C 1,1 C 1,1 C 99 % 1038,3 hPa 0,0 l/m 0 min 0 min 0 W/m 6,4 km/h (2 Bft) 100,00 %
14.01.2022 00:58 1,6 C 1,1 C 1,1 C 99 % 1038,3 hPa 0,0 l/m 0 min 0 min 0 W/m 6,4 km/h (2 Bft) 97,87 %
14.01.2022 01:00 1,6 C 1,1 C 1,1 C 99 % 1038,3 hPa 0,0 l/m 0 min 0 min 0 W/m 6,4 km/h (2 Bft) 97,56 %
14.01.2022 01:02 1,6 C 1,1 C 1,1 C 99 % 1038,3 hPa 0,0 l/m 0 min 0 min 0 W/m 3,2 km/h (1 Bft) 100,00 %
14.01.2022 01:04 1,6 C 1,1 C 1,1 C 99 % 1038,3 hPa 0,0 l/m 0 min 0 min 0 W/m 3,2 km/h (1 Bft) 97,87 %
14.01.2022 01:06 1,6 C 1,1 C 1,1 C 99 % 1038,2 hPa 0,0 l/m 0 min 0 min 0 W/m 3,2 km/h (1 Bft) 100,00 %
14.01.2022 01:08 1,6 C 1,1 C 1,1 C 99 % 1038,3 hPa 0,0 l/m 0 min 0 min 0 W/m 3,2 km/h (1 Bft) 97,87 %
14.01.2022 01:10 1,6 C 1,1 C 1,1 C 99 % 1038,3 hPa 0,0 l/m 0 min 0 min 0 W/m 3,2 km/h (1 Bft) 97,96 %
14.01.2022 01:12 1,6 C 1,1 C 1,1 C 99 % 1038,3 hPa 0,0 l/m 0 min 0 min 0 W/m 3,2 km/h (1 Bft) 97,87 %
14.01.2022 01:14 1,6 C 1,1 C 1,1 C 99 % 1038,2 hPa 0,0 l/m 0 min 0 min 0 W/m 6,4 km/h (2 Bft) 97,96 %
14.01.2022 01:16 1,5 C 1,1 C 1,1 C 99 % 1038,2 hPa 0,0 l/m 0 min 0 min 0 W/m 3,2 km/h (1 Bft) 56,52 %
14.01.2022 01:18 1,5 C 1,1 C 1,1 C 99 % 1038,2 hPa 0,0 l/m 0 min 0 min 0 W/m 6,4 km/h (2 Bft) 97,83 %
14.01.2022 01:20 1,5 C 1,1 C 1,1 C 99 % 1038,1 hPa 0,0 l/m 0 min 0 min 0 W/m 6,4 km/h (2 Bft) 97,14 %
14.01.2022 01:22 1,5 C 1,1 C 1,1 C 99 % 1038,2 hPa 0,0 l/m 0 min 0 min 0 W/m 6,4 km/h (2 Bft) 98,31 %
14.01.2022 01:24 1,5 C 1,1 C 1,1 C 99 % 1038,1 hPa 0,0 l/m 0 min 0 min 0 W/m 6,4 km/h (2 Bft) 97,87 %
14.01.2022 01:26 1,5 C 1,1 C 1,1 C 99 % 1038,1 hPa 0,0 l/m 0 min 0 min 0 W/m 9,7 km/h (2 Bft) 97,14 %
14.01.2022 01:28 1,4 C 1,1 C 1,1 C 99 % 1038,0 hPa 0,0 l/m 0 min 0 min 0 W/m 6,4 km/h (2 Bft) 97,87 %
14.01.2022 01:30 1,5 C 1,1 C 1,1 C 99 % 1038,0 hPa 0,0 l/m 0 min 0 min 0 W/m 12,9 km/h (3 Bft) 95,74 %
14.01.2022 01:32 1,5 C 1,1 C 1,1 C 99 % 1038,1 hPa 0,0 l/m 0 min 0 min 0 W/m 9,7 km/h (2 Bft) 92,45 %
14.01.2022 01:34 1,5 C 1,1 C 1,1 C 99 % 1038,1 hPa 0,0 l/m 0 min 0 min 0 W/m 6,4 km/h (2 Bft) 97,83 %
14.01.2022 01:36 1,5 C 1,1 C 1,1 C 99 % 1038,1 hPa 0,0 l/m 0 min 0 min 0 W/m 0,0 km/h (0 Bft) 97,87 %
14.01.2022 01:38 1,5 C 1,1 C 1,1 C 99 % 1038,1 hPa 0,0 l/m 0 min 0 min 0 W/m 6,4 km/h (2 Bft) 97,87 %
14.01.2022 01:40 1,5 C 1,1 C 1,1 C 99 % 1038,1 hPa 0,0 l/m 0 min 0 min 0 W/m 3,2 km/h (1 Bft) 100,00 %
14.01.2022 01:42 1,5 C 1,1 C 1,1 C 99 % 1038,1 hPa 0,0 l/m 0 min 0 min 0 W/m 6,4 km/h (2 Bft) 100,00 %
14.01.2022 01:44 1,5 C 1,1 C 1,1 C 99 % 1038,1 hPa 0,0 l/m 0 min 0 min 0 W/m 6,4 km/h (2 Bft) 97,87 %
14.01.2022 01:46 1,5 C 1,1 C 1,1 C 99 % 1038,1 hPa 0,0 l/m 0 min 0 min 0 W/m 3,2 km/h (1 Bft) 100,00 %
14.01.2022 01:48 1,6 C 1,1 C 1,1 C 99 % 1038,1 hPa 0,0 l/m 0 min 0 min 0 W/m 6,4 km/h (2 Bft) 100,00 %
14.01.2022 01:50 1,6 C 1,1 C 1,1 C 99 % 1038,1 hPa 0,0 l/m 0 min 0 min 0 W/m 6,4 km/h (2 Bft) 100,00 %
14.01.2022 01:52 1,6 C 1,1 C 1,1 C 99 % 1038,1 hPa 0,0 l/m 0 min 0 min 0 W/m 6,4 km/h (2 Bft) 100,00 %
14.01.2022 01:54 1,6 C 1,1 C 1,1 C 99 % 1038,1 hPa 0,0 l/m 0 min 0 min 0 W/m 3,2 km/h (1 Bft) 100,00 %
14.01.2022 01:56 1,6 C 1,1 C 1,1 C 99 % 1038,1 hPa 0,0 l/m 0 min 0 min 0 W/m 3,2 km/h (1 Bft) 100,00 %
14.01.2022 01:58 1,6 C 1,1 C 1,1 C 99 % 1038,1 hPa 0,0 l/m 0 min 0 min 0 W/m 6,4 km/h (2 Bft) 100,00 %
14.01.2022 02:00 1,6 C 1,1 C 1,1 C 99 % 1038,2 hPa 0,0 l/m 0 min 0 min 0 W/m 3,2 km/h (1 Bft) 100,00 %
14.01.2022 02:02 1,6 C 1,1 C 1,1 C 99 % 1038,2 hPa 0,0 l/m 0 min 0 min 0 W/m 9,7 km/h (2 Bft) 100,00 %
14.01.2022 02:04 1,6 C 1,1 C 1,1 C 99 % 1038,2 hPa 0,0 l/m 0 min 0 min 0 W/m 3,2 km/h (1 Bft) 97,87 %
14.01.2022 02:06 1,6 C 1,1 C 1,1 C 99 % 1038,2 hPa 0,0 l/m 0 min 0 min 0 W/m 3,2 km/h (1 Bft) 54,55 %
14.01.2022 02:08 1,6 C 1,1 C 1,1 C 99 % 1038,2 hPa 0,0 l/m 0 min 0 min 0 W/m 6,4 km/h (2 Bft) 100,00 %
14.01.2022 02:10 1,6 C 1,1 C 1,1 C 99 % 1038,2 hPa 0,0 l/m 0 min 0 min 0 W/m 3,2 km/h (1 Bft) 100,00 %
14.01.2022 02:12 1,6 C 1,1 C 1,1 C 99 % 1038,3 hPa 0,0 l/m 0 min 0 min 0 W/m 3,2 km/h (1 Bft) 100,00 %
14.01.2022 02:14 1,6 C 1,1 C 1,1 C 99 % 1038,2 hPa 0,0 l/m 0 min 0 min 0 W/m 3,2 km/h (1 Bft) 97,87 %
14.01.2022 02:16 1,6 C 1,1 C 1,1 C 99 % 1038,1 hPa 0,0 l/m 0 min 0 min 0 W/m 3,2 km/h (1 Bft) 100,00 %
14.01.2022 02:18 1,6 C 1,1 C 1,1 C 99 % 1038,1 hPa 0,0 l/m 0 min 0 min 0 W/m 3,2 km/h (1 Bft) 100,00 %
14.01.2022 02:20 1,6 C 1,1 C 1,1 C 99 % 1038,1 hPa 0,0 l/m 0 min 0 min 0 W/m 3,2 km/h (1 Bft) 100,00 %
14.01.2022 02:22 1,6 C 1,1 C 1,1 C 99 % 1038,1 hPa 0,0 l/m 0 min 0 min 0 W/m 3,2 km/h (1 Bft) 100,00 %
14.01.2022 02:24 1,6 C 1,1 C 1,1 C 99 % 1038,1 hPa 0,0 l/m 0 min 0 min 0 W/m 3,2 km/h (1 Bft) 100,00 %
14.01.2022 02:26 1,6 C 1,1 C 1,1 C 99 % 1038,2 hPa 0,0 l/m 0 min 0 min 0 W/m 0,0 km/h (0 Bft) 100,00 %
14.01.2022 02:28 1,6 C 1,1 C 1,1 C 99 % 1038,1 hPa 0,0 l/m 0 min 0 min 0 W/m 3,2 km/h (1 Bft) 97,87 %
14.01.2022 02:30 1,6 C 1,1 C 1,1 C 99 % 1038,1 hPa 0,0 l/m 0 min 0 min 0 W/m 3,2 km/h (1 Bft) 100,00 %
14.01.2022 02:32 1,6 C 1,1 C 1,1 C 99 % 1038,1 hPa 0,0 l/m 0 min 0 min 0 W/m 3,2 km/h (1 Bft) 100,00 %
14.01.2022 02:34 1,6 C 1,1 C 1,1 C 99 % 1038,0 hPa 0,0 l/m 0 min 0 min 0 W/m 3,2 km/h (1 Bft) 100,00 %
14.01.2022 02:36 1,6 C 1,1 C 1,1 C 99 % 1038,1 hPa 0,0 l/m 0 min 0 min 0 W/m 3,2 km/h (1 Bft) 100,00 %
14.01.2022 02:38 1,6 C 1,1 C 1,1 C 99 % 1038,1 hPa 0,0 l/m 0 min 0 min 0 W/m 3,2 km/h (1 Bft) 97,87 %
14.01.2022 02:40 1,6 C 1,1 C 1,1 C 99 % 1038,0 hPa 0,0 l/m 0 min 0 min 0 W/m 3,2 km/h (1 Bft) 95,74 %
14.01.2022 02:42 1,6 C 1,1 C 1,1 C 99 % 1038,0 hPa 0,0 l/m 0 min 0 min 0 W/m 0,0 km/h (0 Bft) 97,87 %
14.01.2022 02:44 1,6 C 1,1 C 1,1 C 99 % 1038,1 hPa 0,0 l/m 0 min 0 min 0 W/m 3,2 km/h (1 Bft) 95,65 %
14.01.2022 02:46 1,6 C 1,1 C 1,1 C 99 % 1038,1 hPa 0,0 l/m 0 min 0 min 0 W/m 3,2 km/h (1 Bft) 97,87 %
14.01.2022 02:48 1,6 C 1,1 C 1,1 C 99 % 1037,9 hPa 0,0 l/m 0 min 0 min 0 W/m 0,0 km/h (0 Bft) 97,87 %
14.01.2022 02:50 1,6 C 1,1 C 1,1 C 99 % 1037,9 hPa 0,0 l/m 0 min 0 min 0 W/m 0,0 km/h (0 Bft) 97,87 %
14.01.2022 02:52 1,6 C 1,1 C 1,1 C 99 % 1037,9 hPa 0,0 l/m 0 min 0 min 0 W/m 0,0 km/h (0 Bft) 93,62 %
14.01.2022 02:54 1,5 C 1,1 C 1,1 C 99 % 1037,8 hPa 0,0 l/m 0 min 0 min 0 W/m 3,2 km/h (1 Bft) 95,74 %
14.01.2022 02:56 1,5 C 1,1 C 1,1 C 99 % 1037,9 hPa 0,0 l/m 0 min 0 min 0 W/m 0,0 km/h (0 Bft) 97,83 %
14.01.2022 02:58 1,5 C 1,1 C 1,1 C 99 % 1037,9 hPa 0,0 l/m 0 min 0 min 0 W/m 0,0 km/h (0 Bft) 95,74 %
14.01.2022 03:00 1,5 C 1,1 C 1,1 C 99 % 1037,9 hPa 0,0 l/m 0 min 0 min 0 W/m 6,4 km/h (2 Bft) 93,62 %
14.01.2022 03:02 1,4 C 1,1 C 1,1 C 99 % 1037,9 hPa 0,0 l/m 0 min 0 min 0 W/m 3,2 km/h (1 Bft) 95,83 %
14.01.2022 03:04 1,4 C 0,6 C 1,1 C 99 % 1037,8 hPa 0,0 l/m 0 min 0 min 0 W/m 3,2 km/h (1 Bft) 91,49 %
14.01.2022 03:06 1,4 C 0,6 C 1,1 C 99 % 1037,9 hPa 0,0 l/m 0 min 0 min 0 W/m 3,2 km/h (1 Bft) 93,48 %
14.01.2022 03:08 1,4 C 0,6 C 1,1 C 99 % 1037,9 hPa 0,0 l/m 0 min 0 min 0 W/m 6,4 km/h (2 Bft) 91,49 %
14.01.2022 03:10 1,4 C 0,6 C 1,1 C 99 % 1037,9 hPa 0,0 l/m 0 min 0 min 0 W/m 3,2 km/h (1 Bft) 93,62 %
14.01.2022 03:12 1,4 C 0,6 C 1,1 C 99 % 1037,9 hPa 0,0 l/m 0 min 0 min 0 W/m 3,2 km/h (1 Bft) 95,65 %
14.01.2022 03:14 1,4 C 0,6 C 1,1 C 99 % 1037,9 hPa 0,0 l/m 0 min 0 min 0 W/m 0,0 km/h (0 Bft) 93,62 %
14.01.2022 03:16 1,4 C 0,6 C 1,1 C 99 % 1037,8 hPa 0,0 l/m 0 min 0 min 0 W/m 3,2 km/h (1 Bft) 93,62 %
14.01.2022 03:18 1,4 C 0,6 C 1,1 C 99 % 1037,8 hPa 0,0 l/m 0 min 0 min 0 W/m 6,4 km/h (2 Bft) 91,30 %
14.01.2022 03:20 1,3 C 0,6 C 1,1 C 99 % 1037,7 hPa 0,0 l/m 0 min 0 min 0 W/m 6,4 km/h (2 Bft) 95,74 %
14.01.2022 03:22 1,3 C 0,6 C 1,1 C 99 % 1037,7 hPa 0,0 l/m 0 min 0 min 0 W/m 3,2 km/h (1 Bft) 95,74 %
14.01.2022 03:24 1,3 C 0,6 C 1,1 C 99 % 1037,7 hPa 0,0 l/m 0 min 0 min 0 W/m 9,7 km/h (2 Bft) 91,49 %
14.01.2022 03:26 1,3 C 0,6 C 1,1 C 99 % 1037,7 hPa 0,0 l/m 0 min 0 min 0 W/m 3,2 km/h (1 Bft) 93,62 %
14.01.2022 03:28 1,3 C 0,6 C 1,1 C 99 % 1037,8 hPa 0,0 l/m 0 min 0 min 0 W/m 9,7 km/h (2 Bft) 95,74 %
14.01.2022 03:30 1,3 C 0,6 C 1,1 C 99 % 1037,8 hPa 0,0 l/m 0 min 0 min 0 W/m 6,4 km/h (2 Bft) 93,48 %
14.01.2022 03:32 1,3 C 0,6 C 1,1 C 99 % 1037,7 hPa 0,0 l/m 0 min 0 min 0 W/m 6,4 km/h (2 Bft) 95,74 %
14.01.2022 03:34 1,3 C 0,6 C 1,1 C 99 % 1037,7 hPa 0,0 l/m 0 min 0 min 0 W/m 6,4 km/h (2 Bft) 95,74 %
14.01.2022 03:36 1,3 C 0,6 C 1,1 C 99 % 1037,8 hPa 0,0 l/m 0 min 0 min 0 W/m 6,4 km/h (2 Bft) 97,87 %
14.01.2022 03:38 1,2 C 0,6 C 1,1 C 99 % 1037,7 hPa 0,0 l/m 0 min 0 min 0 W/m 9,7 km/h (2 Bft) 97,87 %
14.01.2022 03:40 1,2 C 0,6 C 1,1 C 99 % 1037,7 hPa 0,0 l/m 0 min 0 min 0 W/m 6,4 km/h (2 Bft) 100,00 %
14.01.2022 03:42 1,2 C 0,6 C 1,1 C 99 % 1037,7 hPa 0,0 l/m 0 min 0 min 0 W/m 9,7 km/h (2 Bft) 93,48 %
14.01.2022 03:44 1,2 C 0,6 C 1,1 C 99 % 1037,8 hPa 0,0 l/m 0 min 0 min 0 W/m 9,7 km/h (2 Bft) 97,87 %
14.01.2022 03:46 1,2 C 0,6 C 1,1 C 99 % 1037,8 hPa 0,0 l/m 0 min 0 min 0 W/m 12,9 km/h (3 Bft) 97,87 %
14.01.2022 03:48 1,2 C 0,6 C 1,1 C 99 % 1037,7 hPa 0,0 l/m 0 min 0 min 0 W/m 9,7 km/h (2 Bft) 97,87 %
14.01.2022 03:50 1,1 C 0,6 C 1,1 C 99 % 1037,7 hPa 0,0 l/m 0 min 0 min 0 W/m 6,4 km/h (2 Bft) 97,87 %
14.01.2022 03:52 1,1 C 0,6 C 1,1 C 99 % 1037,7 hPa 0,0 l/m 0 min 0 min 0 W/m 6,4 km/h (2 Bft) 97,87 %
14.01.2022 03:54 1,1 C 0,6 C 1,1 C 99 % 1037,7 hPa 0,0 l/m 0 min 0 min 0 W/m 9,7 km/h (2 Bft) 97,83 %
14.01.2022 03:56 1,0 C 0,6 C 1,1 C 99 % 1037,7 hPa 0,0 l/m 0 min 0 min 0 W/m 12,9 km/h (3 Bft) 100,00 %
14.01.2022 03:58 0,9 C 0,6 C 1,1 C 99 % 1037,7 hPa 0,0 l/m 0 min 0 min 0 W/m 12,9 km/h (3 Bft) 100,00 %
14.01.2022 04:00 0,9 C 0,6 C 1,1 C 99 % 1037,6 hPa 0,0 l/m 0 min 0 min 0 W/m 6,4 km/h (2 Bft) 100,00 %
14.01.2022 04:05 1,0 C 0,6 C 1,1 C 99 % 1037,5 hPa 0,0 l/m 0 min 0 min 0 W/m 12,9 km/h (3 Bft) 100,00 %
14.01.2022 04:06 1,0 C 0,6 C 1,1 C 99 % 1037,5 hPa 0,0 l/m 0 min 0 min 0 W/m 0,0 km/h (0 Bft) 100,00 %
14.01.2022 04:08 1,0 C 0,6 C 1,1 C 99 % 1037,5 hPa 0,0 l/m 0 min 0 min 0 W/m 3,2 km/h (1 Bft) 100,00 %
14.01.2022 04:10 1,0 C 0,6 C 1,1 C 99 % 1037,5 hPa 0,0 l/m 0 min 0 min 0 W/m 0,0 km/h (0 Bft) 100,00 %
14.01.2022 04:12 1,1 C 0,6 C 1,1 C 99 % 1037,4 hPa 0,0 l/m 0 min 0 min 0 W/m 6,4 km/h (2 Bft) 95,74 %
14.01.2022 04:14 1,1 C 0,6 C 1,1 C 99 % 1037,4 hPa 0,0 l/m 0 min 0 min 0 W/m 3,2 km/h (1 Bft) 100,00 %
14.01.2022 04:16 1,1 C 0,6 C 1,1 C 99 % 1037,4 hPa 0,0 l/m 0 min 0 min 0 W/m 6,4 km/h (2 Bft) 100,00 %
14.01.2022 04:18 1,1 C 0,6 C 1,1 C 99 % 1037,4 hPa 0,0 l/m 0 min 0 min 0 W/m 3,2 km/h (1 Bft) 100,00 %
14.01.2022 04:20 1,1 C 0,6 C 1,1 C 99 % 1037,4 hPa 0,0 l/m 0 min 0 min 0 W/m 6,4 km/h (2 Bft) 100,00 %
14.01.2022 04:22 1,1 C 0,6 C 1,1 C 99 % 1037,4 hPa 0,0 l/m 0 min 0 min 0 W/m 3,2 km/h (1 Bft) 100,00 %
14.01.2022 04:24 1,0 C 0,6 C 1,1 C 99 % 1037,4 hPa 0,0 l/m 0 min 0 min 0 W/m 3,2 km/h (1 Bft) 100,00 %
14.01.2022 04:26 1,0 C 0,6 C 1,1 C 99 % 1037,4 hPa 0,0 l/m 0 min 0 min 0 W/m 3,2 km/h (1 Bft) 100,00 %
14.01.2022 04:28 1,0 C 0,6 C 1,1 C 99 % 1037,4 hPa 0,0 l/m 0 min 0 min 0 W/m 3,2 km/h (1 Bft) 100,00 %
14.01.2022 04:30 1,0 C 0,6 C 1,1 C 99 % 1037,4 hPa 0,0 l/m 0 min 0 min 0 W/m 6,4 km/h (2 Bft) 100,00 %
14.01.2022 04:32 1,0 C 0,6 C 1,1 C 99 % 1037,4 hPa 0,0 l/m 0 min 0 min 0 W/m 6,4 km/h (2 Bft) 100,00 %
14.01.2022 04:34 1,0 C 0,6 C 1,1 C 99 % 1037,3 hPa 0,0 l/m 0 min 0 min 0 W/m 6,4 km/h (2 Bft) 100,00 %
14.01.2022 04:36 1,0 C 0,6 C 1,1 C 99 % 1037,3 hPa 0,0 l/m 0 min 0 min 0 W/m 6,4 km/h (2 Bft) 100,00 %
14.01.2022 04:38 1,0 C 0,6 C 1,1 C 99 % 1037,3 hPa 0,0 l/m 0 min 0 min 0 W/m 6,4 km/h (2 Bft) 100,00 %
14.01.2022 04:40 1,0 C 0,6 C 1,1 C 99 % 1037,3 hPa 0,0 l/m 0 min 0 min 0 W/m 3,2 km/h (1 Bft) 100,00 %
14.01.2022 04:42 1,0 C 0,6 C 1,1 C 99 % 1037,3 hPa 0,0 l/m 0 min 0 min 0 W/m 0,0 km/h (0 Bft) 97,92 %
14.01.2022 04:44 1,0 C 0,6 C 1,1 C 99 % 1037,3 hPa 0,0 l/m 0 min 0 min 0 W/m 6,4 km/h (2 Bft) 97,87 %
14.01.2022 04:46 1,1 C 0,6 C 1,1 C 99 % 1037,1 hPa 0,0 l/m 0 min 0 min 0 W/m 3,2 km/h (1 Bft) 100,00 %
14.01.2022 04:48 1,1 C 0,6 C 1,1 C 99 % 1037,1 hPa 0,0 l/m 0 min 0 min 0 W/m 6,4 km/h (2 Bft) 100,00 %
14.01.2022 04:50 1,1 C 0,6 C 1,1 C 99 % 1037,1 hPa 0,0 l/m 0 min 0 min 0 W/m 3,2 km/h (1 Bft) 97,87 %
14.01.2022 04:52 1,0 C 0,6 C 1,1 C 99 % 1037,1 hPa 0,0 l/m 0 min 0 min 0 W/m 6,4 km/h (2 Bft) 100,00 %
14.01.2022 04:54 1,0 C 0,6 C 1,1 C 99 % 1037,1 hPa 0,0 l/m 0 min 0 min 0 W/m 3,2 km/h (1 Bft) 95,74 %
14.01.2022 04:56 1,0 C 0,6 C 1,1 C 99 % 1037,1 hPa 0,0 l/m 0 min 0 min 0 W/m 6,4 km/h (2 Bft) 97,87 %
14.01.2022 04:58 0,9 C 0,6 C 1,1 C 99 % 1037,0 hPa 0,0 l/m 0 min 0 min 0 W/m 6,4 km/h (2 Bft) 97,87 %
14.01.2022 05:00 1,0 C 0,6 C 1,1 C 99 % 1037,0 hPa 0,0 l/m 0 min 0 min 0 W/m 6,4 km/h (2 Bft) 95,74 %
14.01.2022 05:02 0,9 C 0,6 C 1,1 C 99 % 1037,0 hPa 0,0 l/m 0 min 0 min 0 W/m 3,2 km/h (1 Bft) 97,87 %
14.01.2022 05:04 0,9 C 0,6 C 1,1 C 99 % 1037,0 hPa 0,0 l/m 0 min 0 min 0 W/m 9,7 km/h (2 Bft) 95,65 %
14.01.2022 05:06 0,9 C 0,6 C 1,1 C 99 % 1037,0 hPa 0,0 l/m 0 min 0 min 0 W/m 9,7 km/h (2 Bft) 97,87 %
14.01.2022 05:08 0,9 C 0,6 C 1,1 C 99 % 1037,0 hPa 0,0 l/m 0 min 0 min 0 W/m 9,7 km/h (2 Bft) 95,83 %
14.01.2022 05:10 0,9 C 0,6 C 1,1 C 99 % 1036,9 hPa 0,0 l/m 0 min 0 min 0 W/m 6,4 km/h (2 Bft) 91,49 %
14.01.2022 05:12 0,9 C 0,6 C 1,1 C 99 % 1037,0 hPa 0,0 l/m 0 min 0 min 0 W/m 3,2 km/h (1 Bft) 95,74 %
14.01.2022 05:14 0,9 C 0,6 C 1,1 C 99 % 1036,9 hPa 0,0 l/m 0 min 0 min 0 W/m 9,7 km/h (2 Bft) 95,65 %
14.01.2022 05:16 0,8 C 0,0 C 1,1 C 99 % 1036,9 hPa 0,0 l/m 0 min 0 min 0 W/m 12,9 km/h (3 Bft) 95,74 %
14.01.2022 05:18 0,8 C 0,0 C 1,1 C 99 % 1036,9 hPa 0,0 l/m 0 min 0 min 0 W/m 3,2 km/h (1 Bft) 95,74 %
14.01.2022 05:20 0,8 C 0,6 C 1,1 C 99 % 1036,9 hPa 0,0 l/m 0 min 0 min 0 W/m 3,2 km/h (1 Bft) 95,74 %
14.01.2022 05:22 0,8 C 0,0 C 1,1 C 99 % 1036,9 hPa 0,0 l/m 0 min 0 min 0 W/m 12,9 km/h (3 Bft) 95,74 %
14.01.2022 05:24 0,8 C 0,0 C 1,1 C 99 % 1036,9 hPa 0,0 l/m 0 min 0 min 0 W/m 6,4 km/h (2 Bft) 95,74 %
14.01.2022 05:26 0,7 C 0,0 C 0,6 C 99 % 1036,9 hPa 0,0 l/m 0 min 0 min 0 W/m 6,4 km/h (2 Bft) 95,65 %
14.01.2022 05:28 0,7 C 0,0 C 1,1 C 99 % 1036,9 hPa 0,0 l/m 0 min 0 min 0 W/m 6,4 km/h (2 Bft) 97,87 %
14.01.2022 05:30 0,7 C 0,0 C 1,1 C 99 % 1037,0 hPa 0,0 l/m 0 min 0 min 0 W/m 3,2 km/h (1 Bft) 97,87 %
14.01.2022 05:32 0,7 C 0,0 C 1,1 C 99 % 1037,0 hPa 0,0 l/m 0 min 0 min 0 W/m 3,2 km/h (1 Bft) 97,92 %
14.01.2022 05:34 0,7 C 0,0 C 1,1 C 99 % 1037,0 hPa 0,0 l/m 0 min 0 min 0 W/m 3,2 km/h (1 Bft) 97,87 %
14.01.2022 05:36 0,7 C 0,6 C 1,1 C 99 % 1037,0 hPa 0,0 l/m 0 min 0 min 0 W/m 3,2 km/h (1 Bft) 93,48 %
14.01.2022 05:38 0,7 C 0,6 C 1,1 C 99 % 1037,0 hPa 0,0 l/m 0 min 0 min 0 W/m 3,2 km/h (1 Bft) 97,92 %
14.01.2022 05:40 0,7 C 0,6 C 1,1 C 99 % 1037,0 hPa 0,0 l/m 0 min 0 min 0 W/m 3,2 km/h (1 Bft) 97,87 %
14.01.2022 05:42 0,7 C 0,6 C 1,1 C 99 % 1036,9 hPa 0,0 l/m 0 min 0 min 0 W/m 0,0 km/h (0 Bft) 97,87 %
14.01.2022 05:44 0,8 C 0,6 C 1,1 C 99 % 1036,8 hPa 0,0 l/m 0 min 0 min 0 W/m 3,2 km/h (1 Bft) 97,87 %
14.01.2022 05:46 0,8 C 0,6 C 1,1 C 99 % 1036,8 hPa 0,0 l/m 0 min 0 min 0 W/m 6,4 km/h (2 Bft) 97,83 %
14.01.2022 05:48 0,8 C 0,6 C 1,1 C 99 % 1036,8 hPa 0,0 l/m 0 min 0 min 0 W/m 3,2 km/h (1 Bft) 100,00 %
14.01.2022 05:50 0,8 C 0,6 C 1,1 C 99 % 1036,9 hPa 0,0 l/m 0 min 0 min 0 W/m 6,4 km/h (2 Bft) 100,00 %
14.01.2022 05:52 0,8 C 0,6 C 1,1 C 99 % 1036,9 hPa 0,0 l/m 0 min 0 min 0 W/m 3,2 km/h (1 Bft) 100,00 %
14.01.2022 05:54 0,8 C 0,6 C 1,1 C 99 % 1036,9 hPa 0,0 l/m 0 min 0 min 0 W/m 3,2 km/h (1 Bft) 100,00 %
14.01.2022 05:56 0,8 C 0,6 C 1,1 C 99 % 1036,8 hPa 0,0 l/m 0 min 0 min 0 W/m 3,2 km/h (1 Bft) 97,87 %
14.01.2022 05:58 0,8 C 0,0 C 1,1 C 99 % 1036,8 hPa 0,0 l/m 0 min 0 min 0 W/m 6,4 km/h (2 Bft) 100,00 %
14.01.2022 06:00 0,8 C 0,0 C 1,1 C 99 % 1036,8 hPa 0,0 l/m 0 min 0 min 0 W/m 3,2 km/h (1 Bft) 97,87 %
14.01.2022 06:02 0,7 C 0,0 C 1,1 C 99 % 1036,8 hPa 0,0 l/m 0 min 0 min 0 W/m 9,7 km/h (2 Bft) 100,00 %
14.01.2022 06:04 0,7 C 0,0 C 1,1 C 99 % 1036,8 hPa 0,0 l/m 0 min 0 min 0 W/m 9,7 km/h (2 Bft) 100,00 %
14.01.2022 06:08 0,7 C 0,0 C 1,1 C 99 % 1036,7 hPa 0,0 l/m 0 min 0 min 0 W/m 6,4 km/h (2 Bft) 97,56 %
14.01.2022 06:10 0,7 C 0,0 C 1,1 C 99 % 1036,8 hPa 0,0 l/m 0 min 0 min 0 W/m 6,4 km/h (2 Bft) 33,33 %
14.01.2022 06:12 0,7 C 0,0 C 1,1 C 99 % 1036,8 hPa 0,0 l/m 0 min 0 min 0 W/m 3,2 km/h (1 Bft) 97,83 %
14.01.2022 06:14 0,7 C 0,0 C 1,1 C 99 % 1036,7 hPa 0,0 l/m 0 min 0 min 0 W/m 3,2 km/h (1 Bft) 97,87 %
14.01.2022 06:16 0,7 C 0,6 C 1,1 C 99 % 1036,8 hPa 0,0 l/m 0 min 0 min 0 W/m 3,2 km/h (1 Bft) 97,87 %
14.01.2022 06:18 0,7 C 0,6 C 1,1 C 99 % 1036,7 hPa 0,0 l/m 0 min 0 min 0 W/m 0,0 km/h (0 Bft) 95,74 %
14.01.2022 06:20 0,7 C 0,6 C 1,1 C 99 % 1036,7 hPa 0,0 l/m 0 min 0 min 0 W/m 3,2 km/h (1 Bft) 95,74 %
14.01.2022 06:22 0,8 C 0,6 C 1,1 C 99 % 1036,8 hPa 0,0 l/m 0 min 0 min 0 W/m 3,2 km/h (1 Bft) 97,87 %
14.01.2022 06:24 0,8 C 0,6 C 1,1 C 99 % 1036,8 hPa 0,0 l/m 0 min 0 min 0 W/m 3,2 km/h (1 Bft) 97,83 %
14.01.2022 06:26 0,8 C 0,6 C 1,1 C 99 % 1036,8 hPa 0,0 l/m 0 min 0 min 0 W/m 3,2 km/h (1 Bft) 97,87 %
14.01.2022 06:28 0,8 C 0,6 C 1,1 C 99 % 1036,7 hPa 0,0 l/m 0 min 0 min 0 W/m 3,2 km/h (1 Bft) 95,74 %
14.01.2022 06:30 0,8 C 0,6 C 1,1 C 99 % 1036,7 hPa 0,0 l/m 0 min 0 min 0 W/m 3,2 km/h (1 Bft) 97,87 %
14.01.2022 06:32 0,8 C 0,6 C 1,1 C 99 % 1036,7 hPa 0,0 l/m 0 min 0 min 0 W/m 3,2 km/h (1 Bft) 97,87 %
14.01.2022 06:34 0,8 C 0,6 C 1,1 C 99 % 1036,7 hPa 0,0 l/m 0 min 0 min 0 W/m 6,4 km/h (2 Bft) 97,87 %
14.01.2022 06:36 0,8 C 0,6 C 1,1 C 99 % 1036,7 hPa 0,0 l/m 0 min 0 min 0 W/m 3,2 km/h (1 Bft) 95,65 %
14.01.2022 06:38 0,8 C 0,6 C 1,1 C 99 % 1036,8 hPa 0,0 l/m 0 min 0 min 0 W/m 3,2 km/h (1 Bft) 93,62 %
14.01.2022 06:40 0,8 C 0,6 C 1,1 C 99 % 1036,8 hPa 0,0 l/m 0 min 0 min 0 W/m 3,2 km/h (1 Bft) 95,74 %
14.01.2022 06:42 0,8 C 0,6 C 1,1 C 99 % 1036,8 hPa 0,0 l/m 0 min 0 min 0 W/m 3,2 km/h (1 Bft) 98,11 %
14.01.2022 06:44 0,8 C 0,6 C 1,1 C 99 % 1036,8 hPa 0,0 l/m 0 min 0 min 0 W/m 3,2 km/h (1 Bft) 95,74 %
14.01.2022 06:46 0,8 C 0,6 C 1,1 C 99 % 1036,8 hPa 0,0 l/m 0 min 0 min 0 W/m 3,2 km/h (1 Bft) 95,74 %
14.01.2022 06:48 0,8 C 0,6 C 0,6 C 99 % 1036,8 hPa 0,0 l/m 0 min 0 min 0 W/m 3,2 km/h (1 Bft) 93,62 %
14.01.2022 06:50 0,8 C 0,6 C 0,6 C 99 % 1036,8 hPa 0,0 l/m 0 min 0 min 0 W/m 3,2 km/h (1 Bft) 95,65 %
14.01.2022 06:52 0,8 C 0,6 C 0,6 C 99 % 1036,7 hPa 0,0 l/m 0 min 0 min 0 W/m 0,0 km/h (0 Bft) 95,74 %
14.01.2022 06:54 0,8 C 0,6 C 1,1 C 99 % 1036,8 hPa 0,0 l/m 0 min 0 min 0 W/m 0,0 km/h (0 Bft) 93,62 %
14.01.2022 06:56 0,8 C 0,6 C 1,1 C 99 % 1036,8 hPa 0,0 l/m 0 min 0 min 0 W/m 0,0 km/h (0 Bft) 59,57 %
14.01.2022 06:58 0,8 C 0,6 C 1,1 C 99 % 1036,8 hPa 0,0 l/m 0 min 0 min 0 W/m 0,0 km/h (0 Bft) 95,45 %
14.01.2022 07:00 0,8 C 0,6 C 1,1 C 99 % 1036,7 hPa 0,0 l/m 0 min 0 min 0 W/m 0,0 km/h (0 Bft) 97,83 %
14.01.2022 07:02 0,8 C 0,6 C 1,1 C 99 % 1036,7 hPa 0,0 l/m 0 min 0 min 0 W/m 3,2 km/h (1 Bft) 95,83 %
14.01.2022 07:04 0,8 C 0,6 C 1,1 C 99 % 1036,7 hPa 0,0 l/m 0 min 0 min 0 W/m 3,2 km/h (1 Bft) 97,87 %
14.01.2022 07:06 0,8 C 0,6 C 1,1 C 99 % 1036,7 hPa 0,0 l/m 0 min 0 min 0 W/m 3,2 km/h (1 Bft) 97,87 %
14.01.2022 07:08 0,8 C 0,6 C 1,1 C 99 % 1036,8 hPa 0,0 l/m 0 min 0 min 0 W/m 3,2 km/h (1 Bft) 93,62 %
14.01.2022 07:10 0,8 C 0,0 C 1,1 C 99 % 1036,8 hPa 0,0 l/m 0 min 0 min 0 W/m 6,4 km/h (2 Bft) 95,65 %
14.01.2022 07:12 0,8 C 0,0 C 1,1 C 99 % 1036,8 hPa 0,0 l/m 0 min 0 min 0 W/m 0,0 km/h (0 Bft) 97,87 %
14.01.2022 07:14 0,8 C 0,0 C 1,1 C 99 % 1036,8 hPa 0,0 l/m 0 min 0 min 0 W/m 3,2 km/h (1 Bft) 97,87 %
14.01.2022 07:16 0,8 C 0,0 C 1,1 C 99 % 1036,8 hPa 0,0 l/m 0 min 0 min 0 W/m 6,4 km/h (2 Bft) 100,00 %
14.01.2022 07:18 0,8 C 0,0 C 0,6 C 99 % 1036,8 hPa 0,0 l/m 0 min 0 min 0 W/m 6,4 km/h (2 Bft) 100,00 %
14.01.2022 07:20 0,7 C 0,0 C 0,6 C 99 % 1036,8 hPa 0,0 l/m 0 min 0 min 0 W/m 3,2 km/h (1 Bft) 93,62 %
14.01.2022 07:22 0,7 C 0,0 C 0,6 C 99 % 1036,8 hPa 0,0 l/m 0 min 0 min 0 W/m 3,2 km/h (1 Bft) 95,65 %
14.01.2022 07:24 0,7 C 0,0 C 0,6 C 99 % 1036,8 hPa 0,0 l/m 0 min 0 min 0 W/m 3,2 km/h (1 Bft) 95,74 %
14.01.2022 07:26 0,7 C 0,0 C 0,6 C 99 % 1036,8 hPa 0,0 l/m 0 min 0 min 0 W/m 3,2 km/h (1 Bft) 100,00 %
14.01.2022 07:28 0,7 C 0,0 C 1,1 C 99 % 1036,8 hPa 0,0 l/m 0 min 0 min 0 W/m 3,2 km/h (1 Bft) 100,00 %
14.01.2022 07:30 0,7 C 0,0 C 0,6 C 99 % 1036,8 hPa 0,0 l/m 0 min 0 min 0 W/m 3,2 km/h (1 Bft) 100,00 %
14.01.2022 07:32 0,7 C 0,0 C 0,6 C 99 % 1036,8 hPa 0,0 l/m 0 min 0 min 0 W/m 3,2 km/h (1 Bft) 97,87 %
14.01.2022 07:34 0,7 C 0,0 C 1,1 C 99 % 1036,8 hPa 0,0 l/m 0 min 0 min 0 W/m 3,2 km/h (1 Bft) 97,83 %
14.01.2022 07:36 0,7 C 0,0 C 1,1 C 99 % 1036,8 hPa 0,0 l/m 0 min 0 min 0 W/m 3,2 km/h (1 Bft) 95,74 %
14.01.2022 07:38 0,7 C 0,0 C 0,6 C 99 % 1036,8 hPa 0,0 l/m 0 min 0 min 0 W/m 0,0 km/h (0 Bft) 97,87 %
14.01.2022 07:40 0,7 C 0,0 C 1,1 C 99 % 1036,7 hPa 0,0 l/m 0 min 0 min 0 W/m 6,4 km/h (2 Bft) 95,74 %
14.01.2022 07:42 0,7 C 0,0 C 0,6 C 99 % 1036,8 hPa 0,0 l/m 0 min 0 min 0 W/m 3,2 km/h (1 Bft) 95,74 %
14.01.2022 07:44 0,7 C 0,0 C 1,1 C 99 % 1036,8 hPa 0,0 l/m 0 min 0 min 0 W/m 3,2 km/h (1 Bft) 95,74 %
14.01.2022 07:46 0,7 C 0,0 C 1,1 C 99 % 1036,7 hPa 0,0 l/m 0 min 0 min 0 W/m 3,2 km/h (1 Bft) 97,83 %
14.01.2022 07:48 0,6 C 0,0 C 1,1 C 99 % 1036,7 hPa 0,0 l/m 0 min 0 min 0 W/m 3,2 km/h (1 Bft) 97,87 %
14.01.2022 07:50 0,6 C 0,0 C 1,1 C 99 % 1036,7 hPa 0,0 l/m 0 min 0 min 0 W/m 3,2 km/h (1 Bft) 97,87 %
14.01.2022 07:52 0,6 C 0,0 C 1,1 C 99 % 1036,6 hPa 0,0 l/m 0 min 0 min 0 W/m 3,2 km/h (1 Bft) 100,00 %
14.01.2022 07:54 0,6 C 0,0 C 0,6 C 99 % 1036,6 hPa 0,0 l/m 0 min 0 min 0 W/m 3,2 km/h (1 Bft) 95,74 %
14.01.2022 07:56 0,6 C 0,0 C 0,6 C 99 % 1036,6 hPa 0,0 l/m 0 min 0 min 0 W/m 3,2 km/h (1 Bft) 95,74 %
14.01.2022 07:58 0,6 C 0,0 C 1,1 C 99 % 1036,6 hPa 0,0 l/m 0 min 0 min 0 W/m 6,4 km/h (2 Bft) 97,83 %
14.01.2022 08:00 0,6 C 0,0 C 1,1 C 99 % 1036,6 hPa 0,0 l/m 0 min 0 min 0 W/m 3,2 km/h (1 Bft) 97,87 %
14.01.2022 08:02 0,6 C 0,0 C 0,6 C 99 % 1036,6 hPa 0,0 l/m 0 min 0 min 0 W/m 6,4 km/h (2 Bft) 95,74 %
14.01.2022 08:04 0,6 C 0,0 C 1,1 C 99 % 1036,6 hPa 0,0 l/m 0 min 0 min 0 W/m 0,0 km/h (0 Bft) 97,87 %
14.01.2022 08:06 0,6 C 0,0 C 1,1 C 99 % 1036,6 hPa 0,0 l/m 0 min 0 min 0 W/m 6,4 km/h (2 Bft) 97,87 %
14.01.2022 08:08 0,6 C 0,0 C 1,1 C 99 % 1036,5 hPa 0,0 l/m 0 min 0 min 0 W/m 6,4 km/h (2 Bft) 95,92 %
14.01.2022 08:10 0,6 C 0,0 C 0,6 C 99 % 1036,5 hPa 0,0 l/m 0 min 0 min 0 W/m 6,4 km/h (2 Bft) 95,74 %
14.01.2022 08:12 0,6 C 0,0 C 0,6 C 99 % 1036,5 hPa 0,0 l/m 0 min 0 min 0 W/m 3,2 km/h (1 Bft) 100,00 %
14.01.2022 08:14 0,6 C 0,0 C 0,6 C 99 % 1036,5 hPa 0,0 l/m 0 min 0 min 0 W/m 6,4 km/h (2 Bft) 100,00 %
14.01.2022 08:16 0,6 C 0,0 C 0,6 C 99 % 1036,6 hPa 0,0 l/m 0 min 0 min 0 W/m 3,2 km/h (1 Bft) 100,00 %
14.01.2022 08:18 0,6 C 0,0 C 0,6 C 99 % 1036,5 hPa 0,0 l/m 0 min 0 min 0 W/m 3,2 km/h (1 Bft) 100,00 %
14.01.2022 08:20 0,6 C 0,0 C 0,6 C 99 % 1036,5 hPa 0,0 l/m 0 min 0 min 0 W/m 3,2 km/h (1 Bft) 100,00 %
14.01.2022 08:22 0,6 C 0,0 C 0,6 C 99 % 1036,5 hPa 0,0 l/m 0 min 0 min 0 W/m 3,2 km/h (1 Bft) 97,87 %
14.01.2022 08:24 0,6 C 0,0 C 0,6 C 99 % 1036,5 hPa 0,0 l/m 0 min 0 min 0 W/m 3,2 km/h (1 Bft) 100,00 %
14.01.2022 08:26 0,6 C 0,0 C 1,1 C 99 % 1036,5 hPa 0,0 l/m 0 min 0 min 0 W/m 3,2 km/h (1 Bft) 100,00 %
14.01.2022 08:28 0,6 C 0,0 C 1,1 C 99 % 1036,5 hPa 0,0 l/m 0 min 0 min 0 W/m 0,0 km/h (0 Bft) 97,87 %
14.01.2022 08:30 0,6 C 0,0 C 1,1 C 99 % 1036,5 hPa 0,0 l/m 0 min 0 min 0 W/m 6,4 km/h (2 Bft) 95,74 %
14.01.2022 08:32 0,6 C 0,0 C 1,1 C 99 % 1036,6 hPa 0,0 l/m 0 min 0 min 0 W/m 6,4 km/h (2 Bft) 100,00 %
14.01.2022 08:34 0,6 C 0,0 C 1,1 C 99 % 1036,6 hPa 0,0 l/m 0 min 0 min 0 W/m 3,2 km/h (1 Bft) 95,74 %
14.01.2022 08:36 0,6 C 0,0 C 1,1 C 99 % 1036,6 hPa 0,0 l/m 0 min 0 min 0 W/m 3,2 km/h (1 Bft) 97,87 %
14.01.2022 08:38 0,6 C 0,6 C 1,1 C 99 % 1036,7 hPa 0,0 l/m 0 min 0 min 0 W/m 3,2 km/h (1 Bft) 97,87 %
14.01.2022 08:40 0,6 C 0,6 C 1,1 C 99 % 1036,6 hPa 0,0 l/m 0 min 0 min 0 W/m 6,4 km/h (2 Bft) 97,87 %
14.01.2022 08:42 0,7 C 0,6 C 1,1 C 99 % 1036,6 hPa 0,0 l/m 0 min 0 min 0 W/m 3,2 km/h (1 Bft) 95,65 %
14.01.2022 08:44 0,7 C 0,6 C 1,1 C 99 % 1036,7 hPa 0,0 l/m 0 min 0 min 0 W/m 3,2 km/h (1 Bft) 97,87 %
14.01.2022 08:46 0,7 C 0,0 C 1,1 C 99 % 1036,7 hPa 0,0 l/m 0 min 0 min 4 W/m 6,4 km/h (2 Bft) 93,62 %
14.01.2022 08:48 0,7 C 0,0 C 1,1 C 99 % 1036,7 hPa 0,0 l/m 0 min 0 min 5 W/m 6,4 km/h (2 Bft) 95,92 %
14.01.2022 08:50 0,6 C 0,0 C 1,1 C 99 % 1036,7 hPa 0,0 l/m 0 min 0 min 7 W/m 9,7 km/h (2 Bft) 95,74 %
14.01.2022 08:52 0,6 C 0,0 C 1,1 C 99 % 1036,7 hPa 0,0 l/m 0 min 0 min 7 W/m 3,2 km/h (1 Bft) 95,65 %
14.01.2022 08:54 0,6 C 0,0 C 1,1 C 99 % 1036,7 hPa 0,0 l/m 0 min 0 min 8 W/m 9,7 km/h (2 Bft) 97,87 %
14.01.2022 08:56 0,6 C 0,0 C 1,1 C 99 % 1036,7 hPa 0,0 l/m 0 min 0 min 9 W/m 6,4 km/h (2 Bft) 97,62 %
14.01.2022 08:58 0,6 C 0,0 C 1,1 C 99 % 1036,6 hPa 0,0 l/m 0 min 0 min 9 W/m 6,4 km/h (2 Bft) 98,00 %
14.01.2022 09:00 0,6 C 0,0 C 1,1 C 99 % 1036,6 hPa 0,0 l/m 0 min 0 min 10 W/m 6,4 km/h (2 Bft) 98,00 %
14.01.2022 09:02 0,6 C 0,0 C 1,1 C 99 % 1036,5 hPa 0,0 l/m 0 min 0 min 12 W/m 9,7 km/h (2 Bft) 97,87 %
14.01.2022 09:04 0,6 C 0,0 C 1,1 C 99 % 1036,6 hPa 0,0 l/m 0 min 0 min 14 W/m 6,4 km/h (2 Bft) 97,62 %
14.01.2022 09:06 0,6 C 0,0 C 1,1 C 99 % 1036,6 hPa 0,0 l/m 0 min 0 min 10 W/m 3,2 km/h (1 Bft) 98,15 %
14.01.2022 09:08 0,6 C 0,0 C 1,1 C 99 % 1036,6 hPa 0,0 l/m 0 min 0 min 11 W/m 12,9 km/h (3 Bft) 100,00 %
14.01.2022 09:10 0,6 C 0,0 C 1,1 C 99 % 1036,5 hPa 0,0 l/m 0 min 0 min 13 W/m 6,4 km/h (2 Bft) 97,37 %
14.01.2022 09:12 0,6 C 0,0 C 1,1 C 99 % 1036,4 hPa 0,0 l/m 0 min 0 min 16 W/m 6,4 km/h (2 Bft) 100,00 %
14.01.2022 09:14 0,6 C 0,0 C 1,1 C 99 % 1036,5 hPa 0,0 l/m 0 min 0 min 19 W/m 6,4 km/h (2 Bft) 95,74 %
14.01.2022 09:16 0,6 C 0,0 C 1,1 C 99 % 1036,5 hPa 0,0 l/m 0 min 0 min 21 W/m 6,4 km/h (2 Bft) 98,11 %
14.01.2022 09:18 0,6 C 0,6 C 1,1 C 99 % 1036,5 hPa 0,0 l/m 0 min 0 min 20 W/m 6,4 km/h (2 Bft) 97,37 %
14.01.2022 09:20 0,6 C 0,6 C 1,1 C 99 % 1036,5 hPa 0,0 l/m 0 min 0 min 22 W/m 6,4 km/h (2 Bft) 97,87 %
14.01.2022 09:22 0,7 C 0,6 C 1,1 C 99 % 1036,5 hPa 0,0 l/m 0 min 0 min 22 W/m 6,4 km/h (2 Bft) 97,96 %
14.01.2022 09:24 0,7 C 0,6 C 1,1 C 99 % 1036,5 hPa 0,0 l/m 0 min 0 min 21 W/m 6,4 km/h (2 Bft) 97,87 %
14.01.2022 09:26 0,7 C 0,6 C 1,1 C 99 % 1036,6 hPa 0,0 l/m 0 min 0 min 21 W/m 6,4 km/h (2 Bft) 94,44 %
14.01.2022 09:28 0,7 C 0,6 C 1,1 C 99 % 1036,6 hPa 0,0 l/m 0 min 0 min 24 W/m 3,2 km/h (1 Bft) 95,65 %
14.01.2022 09:30 0,7 C 0,6 C 1,1 C 99 % 1036,6 hPa 0,0 l/m 0 min 0 min 27 W/m 6,4 km/h (2 Bft) 97,37 %
14.01.2022 09:32 0,7 C 0,6 C 1,1 C 99 % 1036,6 hPa 0,0 l/m 0 min 0 min 23 W/m 6,4 km/h (2 Bft) 97,87 %
14.01.2022 09:34 0,7 C 0,6 C 1,1 C 99 % 1036,6 hPa 0,0 l/m 0 min 0 min 28 W/m 9,7 km/h (2 Bft) 97,87 %
14.01.2022 09:36 0,7 C 0,6 C 1,1 C 99 % 1036,6 hPa 0,0 l/m 0 min 0 min 31 W/m 3,2 km/h (1 Bft) 97,87 %
14.01.2022 09:38 0,7 C 0,6 C 1,1 C 99 % 1036,6 hPa 0,0 l/m 0 min 0 min 29 W/m 3,2 km/h (1 Bft) 97,92 %
14.01.2022 09:40 0,7 C 0,6 C 1,1 C 99 % 1036,6 hPa 0,0 l/m 0 min 0 min 30 W/m 6,4 km/h (2 Bft) 97,87 %
14.01.2022 09:42 0,7 C 0,6 C 1,1 C 99 % 1036,7 hPa 0,0 l/m 0 min 0 min 29 W/m 3,2 km/h (1 Bft) 96,30 %
14.01.2022 09:44 0,8 C 0,6 C 1,1 C 99 % 1036,7 hPa 0,0 l/m 0 min 0 min 25 W/m 6,4 km/h (2 Bft) 100,00 %
14.01.2022 09:46 0,8 C 0,6 C 1,1 C 99 % 1036,6 hPa 0,0 l/m 0 min 0 min 33 W/m 6,4 km/h (2 Bft) 93,62 %
14.01.2022 09:48 0,8 C 0,6 C 1,1 C 99 % 1036,6 hPa 0,0 l/m 0 min 0 min 30 W/m 6,4 km/h (2 Bft) 97,96 %
14.01.2022 09:50 0,8 C 0,6 C 1,1 C 99 % 1036,6 hPa 0,0 l/m 0 min 0 min 26 W/m 3,2 km/h (1 Bft) 95,65 %
14.01.2022 09:52 0,8 C 0,6 C 1,1 C 99 % 1036,6 hPa 0,0 l/m 0 min 0 min 26 W/m 6,4 km/h (2 Bft) 95,74 %
14.01.2022 09:54 0,9 C 0,6 C 1,1 C 99 % 1036,6 hPa 0,0 l/m 0 min 0 min 35 W/m 3,2 km/h (1 Bft) 97,87 %
14.01.2022 09:56 0,9 C 0,6 C 1,1 C 99 % 1036,5 hPa 0,0 l/m 0 min 0 min 33 W/m 3,2 km/h (1 Bft) 97,87 %
14.01.2022 09:58 0,9 C 0,6 C 1,1 C 99 % 1036,5 hPa 0,0 l/m 0 min 0 min 35 W/m 3,2 km/h (1 Bft) 95,83 %
14.01.2022 10:00 0,9 C 0,6 C 1,1 C 99 % 1036,6 hPa 0,0 l/m 0 min 0 min 41 W/m 3,2 km/h (1 Bft) 91,84 %
14.01.2022 10:02 1,0 C 0,6 C 1,1 C 99 % 1036,6 hPa 0,0 l/m 0 min 0 min 38 W/m 3,2 km/h (1 Bft) 93,75 %
14.01.2022 10:04 1,1 C 0,6 C 1,1 C 99 % 1036,6 hPa 0,0 l/m 0 min 0 min 43 W/m 6,4 km/h (2 Bft) 97,87 %
14.01.2022 10:06 1,1 C 0,6 C 1,1 C 99 % 1036,7 hPa 0,0 l/m 0 min 0 min 44 W/m 6,4 km/h (2 Bft) 97,22 %
14.01.2022 10:08 1,1 C 0,6 C 1,1 C 99 % 1036,7 hPa 0,0 l/m 0 min 0 min 39 W/m 3,2 km/h (1 Bft) 97,87 %
14.01.2022 10:10 1,1 C 0,6 C 1,1 C 99 % 1036,7 hPa 0,0 l/m 0 min 0 min 42 W/m 6,4 km/h (2 Bft) 96,23 %
14.01.2022 10:12 1,1 C 0,6 C 1,1 C 100 % 1036,6 hPa 0,0 l/m 0 min 0 min 51 W/m 3,2 km/h (1 Bft) 98,00 %
14.01.2022 10:14 1,1 C 1,1 C 1,1 C 100 % 1036,5 hPa 0,0 l/m 0 min 0 min 44 W/m 3,2 km/h (1 Bft) 97,87 %
14.01.2022 10:16 1,1 C 1,1 C 1,7 C 100 % 1036,5 hPa 0,0 l/m 0 min 0 min 44 W/m 3,2 km/h (1 Bft) 95,65 %
14.01.2022 10:18 1,1 C 1,1 C 1,7 C 100 % 1036,5 hPa 0,0 l/m 0 min 0 min 49 W/m 3,2 km/h (1 Bft) 97,87 %
14.01.2022 10:20 1,2 C 1,1 C 1,7 C 100 % 1036,6 hPa 0,0 l/m 0 min 0 min 55 W/m 3,2 km/h (1 Bft) 93,62 %
14.01.2022 10:22 1,2 C 1,1 C 1,7 C 100 % 1036,6 hPa 0,0 l/m 0 min 0 min 48 W/m 3,2 km/h (1 Bft) 94,00 %
14.01.2022 10:24 1,2 C 1,1 C 1,7 C 100 % 1036,7 hPa 0,0 l/m 0 min 0 min 41 W/m 6,4 km/h (2 Bft) 100,00 %
14.01.2022 10:26 1,2 C 1,1 C 1,7 C 100 % 1036,8 hPa 0,0 l/m 0 min 0 min 39 W/m 0,0 km/h (0 Bft) 96,23 %
14.01.2022 10:28 1,2 C 1,1 C 1,7 C 100 % 1036,8 hPa 0,0 l/m 0 min 0 min 39 W/m 6,4 km/h (2 Bft) 95,92 %
14.01.2022 10:30 1,2 C 1,1 C 1,7 C 100 % 1036,8 hPa 0,0 l/m 0 min 0 min 39 W/m 3,2 km/h (1 Bft) 96,00 %
14.01.2022 10:32 1,3 C 1,1 C 1,7 C 99 % 1036,8 hPa 0,0 l/m 0 min 0 min 40 W/m 3,2 km/h (1 Bft) 93,62 %
14.01.2022 10:34 1,3 C 1,1 C 1,7 C 99 % 1036,7 hPa 0,0 l/m 0 min 0 min 42 W/m 3,2 km/h (1 Bft) 95,65 %
14.01.2022 10:36 1,3 C 1,1 C 1,7 C 99 % 1036,9 hPa 0,0 l/m 0 min 0 min 48 W/m 3,2 km/h (1 Bft) 95,74 %
14.01.2022 10:38 1,3 C 1,1 C 1,7 C 99 % 1037,0 hPa 0,0 l/m 0 min 0 min 40 W/m 3,2 km/h (1 Bft) 97,87 %
14.01.2022 10:40 1,3 C 1,1 C 1,7 C 99 % 1036,9 hPa 0,0 l/m 0 min 0 min 36 W/m 3,2 km/h (1 Bft) 91,49 %
14.01.2022 10:42 1,3 C 1,1 C 1,7 C 99 % 1037,0 hPa 0,0 l/m 0 min 0 min 40 W/m 3,2 km/h (1 Bft) 94,29 %
14.01.2022 10:44 1,3 C 1,1 C 1,7 C 99 % 1037,0 hPa 0,0 l/m 0 min 0 min 37 W/m 9,7 km/h (2 Bft) 96,23 %
14.01.2022 10:46 1,4 C 1,1 C 1,7 C 99 % 1037,1 hPa 0,0 l/m 0 min 0 min 34 W/m 9,7 km/h (2 Bft) 97,56 %
14.01.2022 10:48 1,4 C 1,1 C 1,7 C 99 % 1037,1 hPa 0,0 l/m 0 min 0 min 33 W/m 9,7 km/h (2 Bft) 97,87 %
14.01.2022 10:50 1,4 C 1,1 C 1,7 C 100 % 1037,1 hPa 0,0 l/m 0 min 0 min 40 W/m 3,2 km/h (1 Bft) 98,11 %
14.01.2022 10:52 1,4 C 1,1 C 1,7 C 100 % 1037,0 hPa 0,0 l/m 0 min 0 min 45 W/m 6,4 km/h (2 Bft) 97,87 %
14.01.2022 10:54 1,5 C 1,1 C 1,7 C 100 % 1037,1 hPa 0,0 l/m 0 min 0 min 49 W/m 6,4 km/h (2 Bft) 95,74 %
14.01.2022 10:56 1,5 C 1,1 C 1,7 C 100 % 1037,1 hPa 0,0 l/m 0 min 0 min 38 W/m 3,2 km/h (1 Bft) 98,00 %
14.01.2022 10:58 1,5 C 1,1 C 1,7 C 100 % 1037,1 hPa 0,0 l/m 0 min 0 min 40 W/m 0,0 km/h (0 Bft) 98,00 %
14.01.2022 11:00 1,5 C 1,1 C 1,7 C 100 % 1037,1 hPa 0,0 l/m 0 min 0 min 33 W/m 0,0 km/h (0 Bft) 95,74 %
14.01.2022 11:02 1,6 C 1,1 C 1,7 C 100 % 1037,1 hPa 0,0 l/m 0 min 0 min 42 W/m 0,0 km/h (0 Bft) 100,00 %
14.01.2022 11:04 1,6 C 1,1 C 1,7 C 100 % 1037,2 hPa 0,0 l/m 0 min 0 min 33 W/m 3,2 km/h (1 Bft) 97,62 %
14.01.2022 11:06 1,6 C 1,7 C 1,7 C 100 % 1037,2 hPa 0,0 l/m 0 min 0 min 32 W/m 3,2 km/h (1 Bft) 100,00 %
14.01.2022 11:08 1,6 C 1,7 C 1,7 C 100 % 1037,2 hPa 0,0 l/m 0 min 0 min 33 W/m 3,2 km/h (1 Bft) 97,87 %
14.01.2022 11:10 1,6 C 1,7 C 1,7 C 100 % 1037,3 hPa 0,0 l/m 0 min 0 min 32 W/m 6,4 km/h (2 Bft) 100,00 %
14.01.2022 11:12 1,6 C 1,7 C 1,7 C 100 % 1037,3 hPa 0,0 l/m 0 min 0 min 31 W/m 3,2 km/h (1 Bft) 100,00 %
14.01.2022 11:14 1,6 C 1,7 C 1,7 C 100 % 1037,3 hPa 0,0 l/m 0 min 0 min 32 W/m 3,2 km/h (1 Bft) 100,00 %
14.01.2022 11:16 1,6 C 1,7 C 1,7 C 100 % 1037,2 hPa 0,0 l/m 0 min 0 min 31 W/m 3,2 km/h (1 Bft) 100,00 %
14.01.2022 11:18 1,6 C 1,7 C 1,7 C 100 % 1037,2 hPa 0,0 l/m 0 min 0 min 36 W/m 0,0 km/h (0 Bft) 100,00 %
14.01.2022 11:20 1,6 C 1,7 C 1,7 C 100 % 1037,3 hPa 0,0 l/m 0 min 0 min 36 W/m 3,2 km/h (1 Bft) 100,00 %
14.01.2022 11:22 1,6 C 1,7 C 1,7 C 100 % 1037,3 hPa 0,0 l/m 0 min 0 min 37 W/m 3,2 km/h (1 Bft) 100,00 %
14.01.2022 11:24 1,6 C 1,7 C 1,7 C 100 % 1037,3 hPa 0,0 l/m 0 min 0 min 38 W/m 3,2 km/h (1 Bft) 100,00 %
14.01.2022 11:26 1,6 C 1,7 C 1,7 C 100 % 1037,3 hPa 0,0 l/m 0 min 0 min 38 W/m 0,0 km/h (0 Bft) 100,00 %
14.01.2022 11:28 1,6 C 1,7 C 2,2 C 100 % 1037,2 hPa 0,0 l/m 0 min 0 min 41 W/m 0,0 km/h (0 Bft) 100,00 %
14.01.2022 11:30 1,7 C 1,7 C 1,7 C 100 % 1037,2 hPa 0,0 l/m 0 min 0 min 46 W/m 3,2 km/h (1 Bft) 100,00 %
14.01.2022 11:32 1,7 C 1,7 C 1,7 C 100 % 1037,2 hPa 0,0 l/m 0 min 0 min 46 W/m 3,2 km/h (1 Bft) 100,00 %
14.01.2022 11:34 1,7 C 1,7 C 2,2 C 100 % 1037,1 hPa 0,0 l/m 0 min 0 min 52 W/m 0,0 km/h (0 Bft) 100,00 %
14.01.2022 11:36 1,7 C 1,7 C 1,7 C 100 % 1037,1 hPa 0,0 l/m 0 min 0 min 49 W/m 0,0 km/h (0 Bft) 100,00 %
14.01.2022 11:38 1,7 C 1,7 C 1,7 C 100 % 1037,1 hPa 0,0 l/m 0 min 0 min 50 W/m 3,2 km/h (1 Bft) 100,00 %
14.01.2022 11:40 1,7 C 1,7 C 1,7 C 100 % 1037,1 hPa 0,0 l/m 0 min 0 min 50 W/m 0,0 km/h (0 Bft) 100,00 %
14.01.2022 11:42 1,7 C 1,7 C 2,2 C 100 % 1037,0 hPa 0,0 l/m 0 min 0 min 49 W/m 3,2 km/h (1 Bft) 100,00 %
14.01.2022 11:44 1,7 C 1,7 C 2,2 C 100 % 1037,0 hPa 0,0 l/m 0 min 0 min 49 W/m 3,2 km/h (1 Bft) 100,00 %
14.01.2022 11:46 1,7 C 1,7 C 2,2 C 100 % 1036,9 hPa 0,0 l/m 0 min 0 min 51 W/m 0,0 km/h (0 Bft) 97,87 %
14.01.2022 11:48 1,7 C 1,7 C 2,2 C 100 % 1036,9 hPa 0,0 l/m 0 min 0 min 54 W/m 6,4 km/h (2 Bft) 100,00 %
14.01.2022 11:50 1,7 C 1,7 C 2,2 C 100 % 1036,8 hPa 0,0 l/m 0 min 0 min 58 W/m 3,2 km/h (1 Bft) 100,00 %
14.01.2022 11:52 1,7 C 1,7 C 2,2 C 100 % 1036,9 hPa 0,0 l/m 0 min 0 min 56 W/m 0,0 km/h (0 Bft) 100,00 %
14.01.2022 11:54 1,8 C 1,7 C 2,2 C 100 % 1036,8 hPa 0,0 l/m 0 min 0 min 51 W/m 3,2 km/h (1 Bft) 100,00 %
14.01.2022 11:56 1,8 C 1,7 C 2,2 C 100 % 1036,7 hPa 0,0 l/m 0 min 0 min 51 W/m 0,0 km/h (0 Bft) 100,00 %
14.01.2022 11:58 1,8 C 1,7 C 2,2 C 100 % 1036,8 hPa 0,0 l/m 0 min 0 min 58 W/m 0,0 km/h (0 Bft) 100,00 %
14.01.2022 12:00 1,8 C 1,7 C 2,2 C 100 % 1036,7 hPa 0,0 l/m 0 min 0 min 59 W/m 0,0 km/h (0 Bft) 97,83 %
14.01.2022 12:02 1,8 C 1,7 C 2,2 C 100 % 1036,7 hPa 0,0 l/m 0 min 0 min 57 W/m 0,0 km/h (0 Bft) 100,00 %
14.01.2022 12:04 1,8 C 1,7 C 2,2 C 100 % 1036,7 hPa 0,0 l/m 0 min 0 min 53 W/m 0,0 km/h (0 Bft) 98,00 %
14.01.2022 12:08 1,8 C 1,7 C 2,2 C 100 % 1036,6 hPa 0,0 l/m 0 min 0 min 53 W/m 0,0 km/h (0 Bft) 98,94 %
14.01.2022 12:10 1,9 C 2,2 C 2,2 C 100 % 1036,6 hPa 0,0 l/m 0 min 0 min 57 W/m 0,0 km/h (0 Bft) 100,00 %
14.01.2022 12:12 1,9 C 1,7 C 2,2 C 100 % 1036,6 hPa 0,0 l/m 0 min 0 min 57 W/m 0,0 km/h (0 Bft) 97,87 %
14.01.2022 12:14 1,9 C 1,7 C 2,2 C 100 % 1036,6 hPa 0,0 l/m 0 min 0 min 56 W/m 3,2 km/h (1 Bft) 97,87 %
14.01.2022 12:16 1,9 C 2,2 C 2,2 C 100 % 1036,6 hPa 0,0 l/m 0 min 0 min 58 W/m 3,2 km/h (1 Bft) 95,74 %
14.01.2022 12:18 1,9 C 2,2 C 2,2 C 100 % 1036,6 hPa 0,0 l/m 0 min 0 min 47 W/m 3,2 km/h (1 Bft) 95,74 %
14.01.2022 12:20 1,9 C 2,2 C 2,2 C 100 % 1036,5 hPa 0,0 l/m 0 min 0 min 56 W/m 6,4 km/h (2 Bft) 97,87 %
14.01.2022 12:22 2,0 C 2,2 C 2,2 C 100 % 1036,5 hPa 0,0 l/m 0 min 0 min 58 W/m 6,4 km/h (2 Bft) 95,65 %
14.01.2022 12:24 2,0 C 2,2 C 2,2 C 100 % 1036,6 hPa 0,0 l/m 0 min 0 min 51 W/m 3,2 km/h (1 Bft) 97,87 %
14.01.2022 12:26 2,0 C 2,2 C 2,2 C 100 % 1036,6 hPa 0,0 l/m 0 min 0 min 60 W/m 6,4 km/h (2 Bft) 93,62 %
14.01.2022 12:28 2,1 C 2,2 C 2,2 C 100 % 1036,6 hPa 0,0 l/m 0 min 0 min 52 W/m 3,2 km/h (1 Bft) 93,62 %
14.01.2022 12:30 2,1 C 2,2 C 2,2 C 100 % 1036,6 hPa 0,0 l/m 0 min 0 min 51 W/m 3,2 km/h (1 Bft) 93,62 %
14.01.2022 12:32 2,1 C 2,2 C 2,2 C 100 % 1036,6 hPa 0,0 l/m 0 min 0 min 50 W/m 0,0 km/h (0 Bft) 95,65 %
14.01.2022 12:34 2,1 C 2,2 C 2,2 C 100 % 1036,6 hPa 0,0 l/m 0 min 0 min 47 W/m 0,0 km/h (0 Bft) 95,74 %
14.01.2022 12:36 2,1 C 2,2 C 2,2 C 100 % 1036,6 hPa 0,0 l/m 0 min 0 min 53 W/m 3,2 km/h (1 Bft) 91,49 %
14.01.2022 12:38 2,1 C 2,2 C 2,2 C 100 % 1036,6 hPa 0,0 l/m 0 min 0 min 52 W/m 3,2 km/h (1 Bft) 93,62 %
14.01.2022 12:40 2,1 C 2,2 C 2,2 C 100 % 1036,6 hPa 0,0 l/m 0 min 0 min 49 W/m 3,2 km/h (1 Bft) 89,36 %
14.01.2022 12:42 2,2 C 2,2 C 2,2 C 100 % 1036,6 hPa 0,0 l/m 0 min 0 min 49 W/m 3,2 km/h (1 Bft) 91,49 %
14.01.2022 12:44 2,2 C 2,2 C 2,2 C 100 % 1036,5 hPa 0,0 l/m 0 min 0 min 50 W/m 3,2 km/h (1 Bft) 91,30 %
14.01.2022 12:46 2,2 C 2,2 C 2,2 C 100 % 1036,6 hPa 0,0 l/m 0 min 0 min 49 W/m 0,0 km/h (0 Bft) 93,62 %
14.01.2022 12:48 2,2 C 2,2 C 2,2 C 100 % 1036,6 hPa 0,0 l/m 0 min 0 min 43 W/m 3,2 km/h (1 Bft) 91,49 %
14.01.2022 12:50 2,2 C 2,2 C 2,2 C 100 % 1036,6 hPa 0,0 l/m 0 min 0 min 45 W/m 0,0 km/h (0 Bft) 93,62 %
14.01.2022 12:52 2,3 C 2,2 C 2,2 C 100 % 1036,6 hPa 0,0 l/m 0 min 0 min 45 W/m 0,0 km/h (0 Bft) 95,74 %
14.01.2022 12:54 2,3 C 2,2 C 2,8 C 100 % 1036,4 hPa 0,0 l/m 0 min 0 min 45 W/m 3,2 km/h (1 Bft) 93,62 %
14.01.2022 12:56 2,3 C 2,2 C 2,8 C 100 % 1036,4 hPa 0,0 l/m 0 min 0 min 49 W/m 3,2 km/h (1 Bft) 91,30 %
14.01.2022 12:58 2,3 C 2,2 C 2,8 C 100 % 1036,4 hPa 0,0 l/m 0 min 0 min 49 W/m 3,2 km/h (1 Bft) 93,75 %
14.01.2022 13:00 2,3 C 2,2 C 2,8 C 100 % 1036,4 hPa 0,0 l/m 0 min 0 min 50 W/m 3,2 km/h (1 Bft) 93,48 %
14.01.2022 13:02 2,3 C 2,2 C 2,8 C 100 % 1036,4 hPa 0,0 l/m 0 min 0 min 55 W/m 3,2 km/h (1 Bft) 97,87 %
14.01.2022 13:04 2,4 C 2,2 C 2,8 C 100 % 1036,3 hPa 0,0 l/m 0 min 0 min 60 W/m 9,7 km/h (2 Bft) 97,73 %
14.01.2022 13:06 2,4 C 2,2 C 2,8 C 100 % 1036,4 hPa 0,0 l/m 0 min 0 min 59 W/m 3,2 km/h (1 Bft) 97,87 %
14.01.2022 13:08 2,4 C 2,2 C 2,8 C 100 % 1036,3 hPa 0,0 l/m 0 min 0 min 54 W/m 3,2 km/h (1 Bft) 97,83 %
14.01.2022 13:10 2,4 C 2,2 C 2,8 C 100 % 1036,3 hPa 0,0 l/m 0 min 0 min 54 W/m 3,2 km/h (1 Bft) 95,74 %
14.01.2022 13:12 2,4 C 2,2 C 2,8 C 100 % 1036,3 hPa 0,0 l/m 0 min 0 min 57 W/m 3,2 km/h (1 Bft) 95,74 %
14.01.2022 13:14 2,4 C 2,2 C 2,8 C 100 % 1036,4 hPa 0,0 l/m 0 min 0 min 53 W/m 0,0 km/h (0 Bft) 93,62 %
14.01.2022 13:16 2,4 C 2,2 C 2,8 C 100 % 1036,4 hPa 0,0 l/m 0 min 0 min 53 W/m 3,2 km/h (1 Bft) 95,74 %
14.01.2022 13:18 2,5 C 2,8 C 2,8 C 100 % 1036,3 hPa 0,0 l/m 0 min 0 min 47 W/m 3,2 km/h (1 Bft) 97,87 %
14.01.2022 13:20 2,5 C 2,8 C 2,8 C 100 % 1036,3 hPa 0,0 l/m 0 min 0 min 47 W/m 0,0 km/h (0 Bft) 97,83 %
14.01.2022 13:22 2,5 C 2,8 C 2,8 C 100 % 1036,3 hPa 0,0 l/m 0 min 0 min 46 W/m 0,0 km/h (0 Bft) 97,87 %
14.01.2022 13:24 2,5 C 2,8 C 2,8 C 100 % 1036,4 hPa 0,0 l/m 0 min 0 min 44 W/m 0,0 km/h (0 Bft) 97,87 %
14.01.2022 13:26 2,6 C 2,8 C 2,8 C 100 % 1036,4 hPa 0,0 l/m 0 min 0 min 47 W/m 0,0 km/h (0 Bft) 100,00 %
14.01.2022 13:28 2,6 C 2,8 C 2,8 C 100 % 1036,5 hPa 0,0 l/m 0 min 0 min 44 W/m 0,0 km/h (0 Bft) 95,74 %
14.01.2022 13:30 2,6 C 2,8 C 2,8 C 100 % 1036,5 hPa 0,0 l/m 0 min 0 min 43 W/m 0,0 km/h (0 Bft) 100,00 %
14.01.2022 13:32 2,6 C 2,8 C 2,8 C 100 % 1036,4 hPa 0,0 l/m 0 min 0 min 49 W/m 0,0 km/h (0 Bft) 100,00 %
14.01.2022 13:34 2,6 C 2,8 C 2,8 C 100 % 1036,4 hPa 0,0 l/m 0 min 0 min 52 W/m 0,0 km/h (0 Bft) 100,00 %
14.01.2022 13:36 2,7 C 2,8 C 2,8 C 100 % 1036,4 hPa 0,0 l/m 0 min 0 min 46 W/m 0,0 km/h (0 Bft) 100,00 %
14.01.2022 13:38 2,7 C 2,8 C 2,8 C 100 % 1036,4 hPa 0,0 l/m 0 min 0 min 49 W/m 0,0 km/h (0 Bft) 100,00 %
14.01.2022 13:40 2,7 C 2,8 C 2,8 C 100 % 1036,4 hPa 0,0 l/m 0 min 0 min 49 W/m 0,0 km/h (0 Bft) 97,87 %
14.01.2022 13:42 2,7 C 2,8 C 2,8 C 100 % 1036,4 hPa 0,0 l/m 0 min 0 min 52 W/m 0,0 km/h (0 Bft) 100,00 %
14.01.2022 13:44 2,7 C 2,8 C 2,8 C 100 % 1036,4 hPa 0,0 l/m 0 min 0 min 51 W/m 0,0 km/h (0 Bft) 100,00 %
14.01.2022 13:46 2,7 C 2,8 C 2,8 C 100 % 1036,4 hPa 0,0 l/m 0 min 0 min 49 W/m 0,0 km/h (0 Bft) 100,00 %
14.01.2022 13:48 2,7 C 2,8 C 2,8 C 100 % 1036,3 hPa 0,0 l/m 0 min 0 min 53 W/m 0,0 km/h (0 Bft) 97,87 %
14.01.2022 13:50 2,7 C 2,8 C 2,8 C 100 % 1036,4 hPa 0,0 l/m 0 min 0 min 49 W/m 0,0 km/h (0 Bft) 100,00 %
14.01.2022 13:52 2,8 C 2,8 C 2,8 C 100 % 1036,4 hPa 0,0 l/m 0 min 0 min 43 W/m 0,0 km/h (0 Bft) 97,87 %
14.01.2022 13:54 2,8 C 2,8 C 2,8 C 100 % 1036,3 hPa 0,0 l/m 0 min 0 min 44 W/m 0,0 km/h (0 Bft) 100,00 %
14.01.2022 13:56 2,8 C 2,8 C 2,8 C 100 % 1036,3 hPa 0,0 l/m 0 min 0 min 50 W/m 6,4 km/h (2 Bft) 100,00 %
14.01.2022 13:58 2,8 C 2,8 C 2,8 C 100 % 1036,3 hPa 0,0 l/m 0 min 0 min 50 W/m 3,2 km/h (1 Bft) 100,00 %
14.01.2022 14:00 2,8 C 2,8 C 2,8 C 100 % 1036,3 hPa 0,0 l/m 0 min 0 min 49 W/m 0,0 km/h (0 Bft) 100,00 %
14.01.2022 14:02 2,8 C 2,8 C 2,8 C 100 % 1036,2 hPa 0,0 l/m 0 min 0 min 56 W/m 6,4 km/h (2 Bft) 100,00 %
14.01.2022 14:04 2,8 C 2,8 C 2,8 C 100 % 1036,1 hPa 0,0 l/m 0 min 0 min 62 W/m 0,0 km/h (0 Bft) 100,00 %
14.01.2022 14:06 2,8 C 2,8 C 3,3 C 100 % 1036,1 hPa 0,0 l/m 0 min 0 min 59 W/m 0,0 km/h (0 Bft) 100,00 %
14.01.2022 14:08 2,9 C 2,8 C 3,3 C 100 % 1036,1 hPa 0,0 l/m 0 min 0 min 54 W/m 0,0 km/h (0 Bft) 100,00 %
14.01.2022 14:10 2,9 C 2,8 C 3,3 C 100 % 1036,1 hPa 0,0 l/m 0 min 0 min 53 W/m 0,0 km/h (0 Bft) 97,87 %
14.01.2022 14:12 2,9 C 2,8 C 3,3 C 100 % 1036,1 hPa 0,0 l/m 0 min 0 min 55 W/m 0,0 km/h (0 Bft) 100,00 %
14.01.2022 14:14 2,9 C 2,8 C 3,3 C 100 % 1036,0 hPa 0,0 l/m 0 min 0 min 57 W/m 3,2 km/h (1 Bft) 100,00 %
14.01.2022 14:16 2,9 C 3,3 C 3,3 C 100 % 1036,1 hPa 0,0 l/m 0 min 0 min 51 W/m 0,0 km/h (0 Bft) 100,00 %
14.01.2022 14:18 2,9 C 3,3 C 3,3 C 100 % 1036,0 hPa 0,0 l/m 0 min 0 min 46 W/m 3,2 km/h (1 Bft) 97,87 %
14.01.2022 14:20 3,0 C 3,3 C 3,3 C 100 % 1035,9 hPa 0,0 l/m 0 min 0 min 51 W/m 6,4 km/h (2 Bft) 100,00 %
14.01.2022 14:22 3,0 C 3,3 C 3,3 C 100 % 1035,9 hPa 0,0 l/m 0 min 0 min 52 W/m 6,4 km/h (2 Bft) 100,00 %
14.01.2022 14:24 3,0 C 3,3 C 3,3 C 100 % 1035,9 hPa 0,0 l/m 0 min 0 min 50 W/m 6,4 km/h (2 Bft) 100,00 %
14.01.2022 14:26 3,1 C 3,3 C 3,3 C 100 % 1035,9 hPa 0,0 l/m 0 min 0 min 55 W/m 3,2 km/h (1 Bft) 97,87 %
14.01.2022 14:28 3,1 C 3,3 C 3,3 C 100 % 1035,9 hPa 0,0 l/m 0 min 0 min 57 W/m 3,2 km/h (1 Bft) 97,87 %
14.01.2022 14:30 3,1 C 3,3 C 3,3 C 100 % 1035,9 hPa 0,0 l/m 0 min 0 min 54 W/m 0,0 km/h (0 Bft) 95,74 %
14.01.2022 14:32 3,1 C 3,3 C 3,3 C 100 % 1035,9 hPa 0,0 l/m 0 min 0 min 51 W/m 3,2 km/h (1 Bft) 97,83 %
14.01.2022 14:34 3,1 C 3,3 C 3,3 C 100 % 1036,0 hPa 0,0 l/m 0 min 0 min 41 W/m 0,0 km/h (0 Bft) 100,00 %
14.01.2022 14:36 3,1 C 3,3 C 3,3 C 100 % 1035,9 hPa 0,0 l/m 0 min 0 min 39 W/m 0,0 km/h (0 Bft) 72,34 %
14.01.2022 14:38 3,2 C 3,3 C 3,3 C 100 % 1036,0 hPa 0,0 l/m 0 min 0 min 42 W/m 6,4 km/h (2 Bft) 80,00 %
14.01.2022 14:40 3,2 C 3,3 C 3,3 C 100 % 1036,0 hPa 0,0 l/m 0 min 0 min 43 W/m 6,4 km/h (2 Bft) 97,87 %
14.01.2022 14:42 3,2 C 3,3 C 3,3 C 100 % 1036,0 hPa 0,0 l/m 0 min 0 min 30 W/m 3,2 km/h (1 Bft) 97,87 %
14.01.2022 14:44 3,2 C 3,3 C 3,3 C 100 % 1036,0 hPa 0,0 l/m 0 min 0 min 31 W/m 3,2 km/h (1 Bft) 97,83 %
14.01.2022 14:46 3,2 C 3,3 C 3,3 C 100 % 1036,0 hPa 0,0 l/m 0 min 0 min 33 W/m 0,0 km/h (0 Bft) 97,87 %
14.01.2022 14:48 3,2 C 3,3 C 3,3 C 100 % 1035,9 hPa 0,0 l/m 0 min 0 min 33 W/m 0,0 km/h (0 Bft) 95,74 %
14.01.2022 14:50 3,2 C 3,3 C 3,3 C 100 % 1036,0 hPa 0,0 l/m 0 min 0 min 31 W/m 0,0 km/h (0 Bft) 97,87 %
14.01.2022 14:52 3,2 C 3,3 C 3,3 C 100 % 1035,9 hPa 0,0 l/m 0 min 0 min 28 W/m 3,2 km/h (1 Bft) 97,87 %
14.01.2022 14:54 3,2 C 3,3 C 3,3 C 100 % 1035,9 hPa 0,0 l/m 0 min 0 min 33 W/m 6,4 km/h (2 Bft) 97,87 %
14.01.2022 14:56 3,3 C 3,3 C 3,3 C 100 % 1035,9 hPa 0,0 l/m 0 min 0 min 32 W/m 6,4 km/h (2 Bft) 97,83 %
14.01.2022 14:58 3,3 C 3,3 C 3,3 C 100 % 1035,9 hPa 0,0 l/m 0 min 0 min 30 W/m 3,2 km/h (1 Bft) 97,87 %
14.01.2022 15:00 3,3 C 3,3 C 3,3 C 100 % 1035,9 hPa 0,0 l/m 0 min 0 min 30 W/m 3,2 km/h (1 Bft) 97,87 %
14.01.2022 15:02 3,3 C 3,3 C 3,3 C 100 % 1036,0 hPa 0,0 l/m 0 min 0 min 26 W/m 3,2 km/h (1 Bft) 95,45 %
14.01.2022 15:04 3,3 C 3,3 C 3,3 C 100 % 1035,9 hPa 0,0 l/m 0 min 0 min 22 W/m 3,2 km/h (1 Bft) 97,96 %
14.01.2022 15:06 3,3 C 3,3 C 3,3 C 100 % 1035,9 hPa 0,0 l/m 0 min 0 min 21 W/m 3,2 km/h (1 Bft) 97,87 %
14.01.2022 15:08 3,3 C 3,3 C 3,3 C 100 % 1035,8 hPa 0,0 l/m 0 min 0 min 19 W/m 3,2 km/h (1 Bft) 97,87 %
14.01.2022 15:10 3,3 C 3,3 C 3,3 C 100 % 1035,8 hPa 0,0 l/m 0 min 0 min 18 W/m 3,2 km/h (1 Bft) 95,74 %
14.01.2022 15:12 3,3 C 2,8 C 3,3 C 100 % 1035,8 hPa 0,0 l/m 0 min 0 min 19 W/m 3,2 km/h (1 Bft) 95,74 %
14.01.2022 15:14 3,3 C 2,8 C 3,3 C 100 % 1035,7 hPa 0,0 l/m 0 min 0 min 25 W/m 6,4 km/h (2 Bft) 95,65 %
14.01.2022 15:16 3,3 C 2,8 C 3,3 C 100 % 1035,7 hPa 0,0 l/m 0 min 0 min 26 W/m 3,2 km/h (1 Bft) 97,87 %
14.01.2022 15:18 3,3 C 2,8 C 3,3 C 100 % 1035,7 hPa 0,0 l/m 0 min 0 min 21 W/m 3,2 km/h (1 Bft) 97,87 %
14.01.2022 15:20 3,3 C 2,8 C 3,3 C 100 % 1035,7 hPa 0,0 l/m 0 min 0 min 16 W/m 3,2 km/h (1 Bft) 95,74 %
14.01.2022 15:22 3,2 C 2,8 C 3,3 C 100 % 1035,7 hPa 0,0 l/m 0 min 0 min 15 W/m 3,2 km/h (1 Bft) 95,74 %
14.01.2022 15:24 3,2 C 2,8 C 3,3 C 100 % 1035,6 hPa 0,0 l/m 0 min 0 min 15 W/m 6,4 km/h (2 Bft) 95,74 %
14.01.2022 15:26 3,2 C 2,8 C 3,3 C 100 % 1035,6 hPa 0,0 l/m 0 min 0 min 16 W/m 3,2 km/h (1 Bft) 93,48 %
14.01.2022 15:28 3,2 C 2,8 C 3,3 C 100 % 1035,7 hPa 0,0 l/m 0 min 0 min 16 W/m 3,2 km/h (1 Bft) 95,74 %
14.01.2022 15:30 3,2 C 2,8 C 3,3 C 100 % 1035,7 hPa 0,0 l/m 0 min 0 min 17 W/m 3,2 km/h (1 Bft) 95,74 %
14.01.2022 15:32 3,2 C 2,8 C 3,3 C 100 % 1035,6 hPa 0,0 l/m 0 min 0 min 18 W/m 0,0 km/h (0 Bft) 93,62 %
14.01.2022 15:34 3,2 C 2,8 C 3,3 C 100 % 1035,6 hPa 0,0 l/m 0 min 0 min 20 W/m 0,0 km/h (0 Bft) 95,74 %
14.01.2022 15:36 3,2 C 2,8 C 3,3 C 100 % 1035,6 hPa 0,0 l/m 0 min 0 min 22 W/m 0,0 km/h (0 Bft) 95,65 %
14.01.2022 15:38 3,2 C 2,8 C 3,3 C 100 % 1035,5 hPa 0,0 l/m 0 min 0 min 22 W/m 0,0 km/h (0 Bft) 95,74 %
14.01.2022 15:40 3,2 C 2,8 C 3,3 C 100 % 1035,6 hPa 0,0 l/m 0 min 0 min 23 W/m 0,0 km/h (0 Bft) 93,62 %
14.01.2022 15:42 3,2 C 2,8 C 3,3 C 100 % 1035,5 hPa 0,0 l/m 0 min 0 min 22 W/m 0,0 km/h (0 Bft) 95,74 %
14.01.2022 15:44 3,2 C 2,8 C 3,3 C 100 % 1035,5 hPa 0,0 l/m 0 min 0 min 19 W/m 0,0 km/h (0 Bft) 95,74 %
14.01.2022 15:46 3,2 C 2,8 C 3,3 C 100 % 1035,6 hPa 0,0 l/m 0 min 0 min 17 W/m 0,0 km/h (0 Bft) 93,62 %
14.01.2022 15:48 3,2 C 2,8 C 3,3 C 100 % 1035,6 hPa 0,0 l/m 0 min 0 min 14 W/m 0,0 km/h (0 Bft) 95,65 %
14.01.2022 15:50 3,2 C 2,8 C 3,3 C 100 % 1035,7 hPa 0,0 l/m 0 min 0 min 13 W/m 0,0 km/h (0 Bft) 93,62 %
14.01.2022 15:52 3,2 C 2,8 C 3,3 C 100 % 1035,6 hPa 0,0 l/m 0 min 0 min 14 W/m 0,0 km/h (0 Bft) 97,87 %
14.01.2022 15:54 3,2 C 2,8 C 3,3 C 100 % 1035,7 hPa 0,0 l/m 0 min 0 min 14 W/m 0,0 km/h (0 Bft) 97,87 %
14.01.2022 15:56 3,2 C 2,8 C 3,3 C 100 % 1035,6 hPa 0,0 l/m 0 min 0 min 14 W/m 0,0 km/h (0 Bft) 95,74 %
14.01.2022 15:58 3,2 C 2,8 C 3,3 C 100 % 1035,7 hPa 0,0 l/m 0 min 0 min 15 W/m 0,0 km/h (0 Bft) 98,00 %
14.01.2022 16:00 3,2 C 2,8 C 3,3 C 100 % 1035,7 hPa 0,0 l/m 0 min 0 min 12 W/m 0,0 km/h (0 Bft) 95,65 %
14.01.2022 16:02 3,2 C 2,8 C 3,3 C 100 % 1035,7 hPa 0,0 l/m 0 min 0 min 12 W/m 0,0 km/h (0 Bft) 97,92 %
14.01.2022 16:04 3,2 C 2,8 C 3,3 C 100 % 1035,8 hPa 0,0 l/m 0 min 0 min 11 W/m 0,0 km/h (0 Bft) 97,87 %
14.01.2022 16:06 3,2 C 2,8 C 3,3 C 100 % 1035,8 hPa 0,0 l/m 0 min 0 min 11 W/m 0,0 km/h (0 Bft) 100,00 %
14.01.2022 16:08 3,2 C 2,8 C 3,3 C 100 % 1035,7 hPa 0,0 l/m 0 min 0 min 9 W/m 0,0 km/h (0 Bft) 97,37 %
14.01.2022 16:10 3,2 C 2,8 C 3,3 C 100 % 1035,8 hPa 0,0 l/m 0 min 0 min 10 W/m 0,0 km/h (0 Bft) 100,00 %
14.01.2022 16:12 3,2 C 2,8 C 3,3 C 100 % 1035,8 hPa 0,0 l/m 0 min 0 min 9 W/m 0,0 km/h (0 Bft) 100,00 %
14.01.2022 16:14 3,2 C 2,8 C 3,3 C 100 % 1035,7 hPa 0,0 l/m 0 min 0 min 9 W/m 0,0 km/h (0 Bft) 97,87 %
14.01.2022 16:16 3,2 C 2,8 C 3,3 C 100 % 1035,7 hPa 0,0 l/m 0 min 0 min 9 W/m 0,0 km/h (0 Bft) 100,00 %
14.01.2022 16:18 3,2 C 2,8 C 3,3 C 100 % 1035,7 hPa 0,0 l/m 0 min 0 min 9 W/m 0,0 km/h (0 Bft) 100,00 %
14.01.2022 16:20 3,2 C 2,8 C 3,3 C 100 % 1035,7 hPa 0,0 l/m 0 min 0 min 8 W/m 0,0 km/h (0 Bft) 95,74 %
14.01.2022 16:22 3,2 C 2,8 C 3,3 C 100 % 1035,6 hPa 0,0 l/m 0 min 0 min 7 W/m 0,0 km/h (0 Bft) 100,00 %
14.01.2022 16:24 3,2 C 2,8 C 3,3 C 100 % 1035,7 hPa 0,0 l/m 0 min 0 min 7 W/m 0,0 km/h (0 Bft) 100,00 %
14.01.2022 16:26 3,2 C 2,8 C 3,3 C 100 % 1035,7 hPa 0,0 l/m 0 min 0 min 7 W/m 0,0 km/h (0 Bft) 100,00 %
14.01.2022 16:28 3,2 C 2,8 C 3,3 C 100 % 1035,7 hPa 0,0 l/m 0 min 0 min 8 W/m 0,0 km/h (0 Bft) 97,87 %
14.01.2022 16:30 3,2 C 2,8 C 3,3 C 100 % 1035,7 hPa 0,0 l/m 0 min 0 min 7 W/m 0,0 km/h (0 Bft) 97,87 %
14.01.2022 16:32 3,2 C 2,8 C 3,3 C 100 % 1035,7 hPa 0,0 l/m 0 min 0 min 6 W/m 0,0 km/h (0 Bft) 97,87 %
14.01.2022 16:34 3,2 C 2,8 C 3,3 C 100 % 1035,7 hPa 0,0 l/m 0 min 0 min 5 W/m 0,0 km/h (0 Bft) 97,87 %
14.01.2022 16:36 3,2 C 2,8 C 3,3 C 100 % 1035,7 hPa 0,0 l/m 0 min 0 min 1 W/m 0,0 km/h (0 Bft) 54,55 %
14.01.2022 16:38 3,1 C 2,8 C 3,3 C 100 % 1035,7 hPa 0,0 l/m 0 min 0 min 2 W/m 0,0 km/h (0 Bft) 95,74 %
14.01.2022 16:40 3,1 C 2,8 C 3,3 C 100 % 1035,7 hPa 0,0 l/m 0 min 0 min 0 W/m 0,0 km/h (0 Bft) 97,87 %
14.01.2022 16:42 3,1 C 2,8 C 3,3 C 100 % 1035,7 hPa 0,0 l/m 0 min 0 min 0 W/m 0,0 km/h (0 Bft) 95,83 %
14.01.2022 16:44 3,1 C 2,8 C 3,3 C 100 % 1035,7 hPa 0,0 l/m 0 min 0 min 0 W/m 0,0 km/h (0 Bft) 95,74 %
14.01.2022 16:46 3,1 C 2,8 C 3,3 C 100 % 1035,7 hPa 0,0 l/m 0 min 0 min 0 W/m 0,0 km/h (0 Bft) 97,83 %
14.01.2022 16:48 3,1 C 2,8 C 3,3 C 100 % 1035,7 hPa 0,0 l/m 0 min 0 min 0 W/m 0,0 km/h (0 Bft) 97,87 %
14.01.2022 16:50 3,1 C 2,8 C 3,3 C 100 % 1035,7 hPa 0,0 l/m 0 min 0 min 0 W/m 0,0 km/h (0 Bft) 97,87 %
14.01.2022 16:52 3,1 C 2,8 C 3,3 C 100 % 1035,7 hPa 0,0 l/m 0 min 0 min 0 W/m 0,0 km/h (0 Bft) 97,87 %
14.01.2022 16:54 3,1 C 2,8 C 3,3 C 100 % 1035,7 hPa 0,0 l/m 0 min 0 min 0 W/m 0,0 km/h (0 Bft) 97,87 %
14.01.2022 16:56 3,1 C 2,8 C 3,3 C 100 % 1035,7 hPa 0,0 l/m 0 min 0 min 0 W/m 0,0 km/h (0 Bft) 95,74 %
14.01.2022 16:58 3,1 C 2,8 C 3,3 C 100 % 1035,7 hPa 0,0 l/m 0 min 0 min 0 W/m 0,0 km/h (0 Bft) 95,65 %
14.01.2022 17:00 3,1 C 2,8 C 3,3 C 100 % 1035,7 hPa 0,0 l/m 0 min 0 min 0 W/m 0,0 km/h (0 Bft) 97,87 %
14.01.2022 17:02 3,1 C 2,8 C 3,3 C 100 % 1035,6 hPa 0,0 l/m 0 min 0 min 0 W/m 0,0 km/h (0 Bft) 97,87 %
14.01.2022 17:04 3,1 C 2,8 C 3,3 C 100 % 1035,6 hPa 0,0 l/m 0 min 0 min 0 W/m 0,0 km/h (0 Bft) 97,87 %
14.01.2022 17:06 3,1 C 2,8 C 3,3 C 100 % 1035,6 hPa 0,0 l/m 0 min 0 min 0 W/m 0,0 km/h (0 Bft) 100,00 %
14.01.2022 17:08 3,1 C 2,8 C 3,3 C 100 % 1035,6 hPa 0,0 l/m 0 min 0 min 0 W/m 0,0 km/h (0 Bft) 100,00 %
14.01.2022 17:10 3,1 C 2,8 C 3,3 C 100 % 1035,6 hPa 0,0 l/m 0 min 0 min 0 W/m 0,0 km/h (0 Bft) 100,00 %
14.01.2022 17:12 3,1 C 2,8 C 3,3 C 100 % 1035,5 hPa 0,0 l/m 0 min 0 min 0 W/m 0,0 km/h (0 Bft) 100,00 %
14.01.2022 17:14 3,1 C 2,8 C 3,3 C 100 % 1035,5 hPa 0,0 l/m 0 min 0 min 0 W/m 0,0 km/h (0 Bft) 100,00 %
14.01.2022 17:16 3,1 C 2,8 C 3,3 C 100 % 1035,6 hPa 0,0 l/m 0 min 0 min 0 W/m 0,0 km/h (0 Bft) 100,00 %
14.01.2022 17:18 3,1 C 2,8 C 3,3 C 100 % 1035,5 hPa 0,0 l/m 0 min 0 min 0 W/m 0,0 km/h (0 Bft) 100,00 %
14.01.2022 17:20 3,1 C 2,8 C 3,3 C 100 % 1035,5 hPa 0,0 l/m 0 min 0 min 0 W/m 0,0 km/h (0 Bft) 100,00 %
14.01.2022 17:22 3,1 C 2,8 C 3,3 C 100 % 1035,5 hPa 0,0 l/m 0 min 0 min 0 W/m 0,0 km/h (0 Bft) 100,00 %
14.01.2022 17:24 3,1 C 2,8 C 3,3 C 100 % 1035,5 hPa 0,0 l/m 0 min 0 min 0 W/m 0,0 km/h (0 Bft) 100,00 %
14.01.2022 17:26 3,1 C 2,8 C 3,3 C 100 % 1035,5 hPa 0,0 l/m 0 min 0 min 0 W/m 0,0 km/h (0 Bft) 100,00 %
14.01.2022 17:28 3,1 C 2,8 C 3,3 C 100 % 1035,5 hPa 0,0 l/m 0 min 0 min 0 W/m 0,0 km/h (0 Bft) 100,00 %
14.01.2022 17:30 3,1 C 2,8 C 3,3 C 100 % 1035,5 hPa 0,0 l/m 0 min 0 min 0 W/m 0,0 km/h (0 Bft) 97,87 %
14.01.2022 17:32 3,1 C 2,8 C 3,3 C 100 % 1035,5 hPa 0,0 l/m 0 min 0 min 0 W/m 0,0 km/h (0 Bft) 100,00 %
14.01.2022 17:34 3,1 C 2,8 C 3,3 C 100 % 1035,5 hPa 0,0 l/m 0 min 0 min 0 W/m 0,0 km/h (0 Bft) 100,00 %
14.01.2022 17:36 3,1 C 2,8 C 3,3 C 100 % 1035,5 hPa 0,0 l/m 0 min 0 min 0 W/m 0,0 km/h (0 Bft) 100,00 %
14.01.2022 17:38 3,1 C 2,8 C 3,3 C 100 % 1035,6 hPa 0,0 l/m 0 min 0 min 0 W/m 0,0 km/h (0 Bft) 100,00 %
14.01.2022 17:40 3,1 C 2,8 C 3,3 C 100 % 1035,5 hPa 0,0 l/m 0 min 0 min 0 W/m 0,0 km/h (0 Bft) 97,83 %
14.01.2022 17:42 3,1 C 2,8 C 3,3 C 100 % 1035,5 hPa 0,0 l/m 0 min 0 min 0 W/m 0,0 km/h (0 Bft) 100,00 %
14.01.2022 17:44 3,1 C 2,8 C 3,3 C 100 % 1035,5 hPa 0,0 l/m 0 min 0 min 0 W/m 0,0 km/h (0 Bft) 100,00 %
14.01.2022 17:46 3,1 C 2,8 C 3,3 C 100 % 1035,5 hPa 0,0 l/m 0 min 0 min 0 W/m 0,0 km/h (0 Bft) 97,87 %
14.01.2022 17:48 3,1 C 2,8 C 3,3 C 100 % 1035,5 hPa 0,0 l/m 0 min 0 min 0 W/m 0,0 km/h (0 Bft) 97,87 %
14.01.2022 17:50 3,1 C 2,8 C 3,3 C 100 % 1035,5 hPa 0,0 l/m 0 min 0 min 0 W/m 0,0 km/h (0 Bft) 100,00 %
14.01.2022 17:52 3,1 C 2,8 C 3,3 C 100 % 1035,5 hPa 0,0 l/m 0 min 0 min 0 W/m 0,0 km/h (0 Bft) 95,74 %
14.01.2022 17:54 3,1 C 2,8 C 3,3 C 100 % 1035,5 hPa 0,0 l/m 0 min 0 min 0 W/m 0,0 km/h (0 Bft) 95,74 %
14.01.2022 17:56 3,1 C 2,8 C 3,3 C 100 % 1035,5 hPa 0,0 l/m 0 min 0 min 0 W/m 0,0 km/h (0 Bft) 97,92 %
14.01.2022 17:58 3,1 C 2,8 C 3,3 C 100 % 1035,5 hPa 0,0 l/m 0 min 0 min 0 W/m 0,0 km/h (0 Bft) 97,87 %
14.01.2022 18:00 3,1 C 2,8 C 3,3 C 100 % 1035,6 hPa 0,0 l/m 0 min 0 min 0 W/m 0,0 km/h (0 Bft) 93,62 %
14.01.2022 18:02 3,1 C 2,8 C 3,3 C 100 % 1035,6 hPa 0,0 l/m 0 min 0 min 0 W/m 0,0 km/h (0 Bft) 93,75 %
14.01.2022 18:04 3,1 C 2,8 C 3,3 C 100 % 1035,6 hPa 0,0 l/m 0 min 0 min 0 W/m 0,0 km/h (0 Bft) 95,74 %
14.01.2022 18:06 3,1 C 2,8 C 3,3 C 100 % 1035,6 hPa 0,0 l/m 0 min 0 min 0 W/m 0,0 km/h (0 Bft) 95,74 %
14.01.2022 18:08 3,1 C 2,8 C 3,3 C 100 % 1035,5 hPa 0,0 l/m 0 min 0 min 0 W/m 0,0 km/h (0 Bft) 91,49 %
14.01.2022 18:10 3,1 C 2,8 C 3,3 C 100 % 1035,5 hPa 0,0 l/m 0 min 0 min 0 W/m 0,0 km/h (0 Bft) 95,74 %
14.01.2022 18:12 3,1 C 2,8 C 3,3 C 100 % 1035,5 hPa 0,0 l/m 0 min 0 min 0 W/m 0,0 km/h (0 Bft) 95,65 %
14.01.2022 18:14 3,1 C 2,8 C 3,3 C 100 % 1035,5 hPa 0,0 l/m 0 min 0 min 0 W/m 0,0 km/h (0 Bft) 91,49 %
14.01.2022 18:16 3,1 C 2,8 C 3,3 C 100 % 1035,5 hPa 0,0 l/m 0 min 0 min 0 W/m 0,0 km/h (0 Bft) 95,74 %
14.01.2022 18:18 3,1 C 2,8 C 3,3 C 100 % 1035,6 hPa 0,0 l/m 0 min 0 min 0 W/m 0,0 km/h (0 Bft) 93,62 %
14.01.2022 18:20 3,1 C 2,8 C 3,3 C 100 % 1035,5 hPa 0,0 l/m 0 min 0 min 0 W/m 0,0 km/h (0 Bft) 95,74 %
14.01.2022 18:22 3,1 C 2,8 C 3,3 C 100 % 1035,5 hPa 0,0 l/m 0 min 0 min 0 W/m 0,0 km/h (0 Bft) 95,74 %
14.01.2022 18:24 3,1 C 2,8 C 3,3 C 100 % 1035,5 hPa 0,0 l/m 0 min 0 min 0 W/m 0,0 km/h (0 Bft) 93,48 %
14.01.2022 18:26 3,1 C 2,8 C 3,3 C 100 % 1035,5 hPa 0,0 l/m 0 min 0 min 0 W/m 0,0 km/h (0 Bft) 89,36 %
14.01.2022 18:28 3,1 C 2,8 C 3,3 C 100 % 1035,5 hPa 0,0 l/m 0 min 0 min 0 W/m 0,0 km/h (0 Bft) 93,62 %
14.01.2022 18:30 3,2 C 2,8 C 3,3 C 100 % 1035,4 hPa 0,0 l/m 0 min 0 min 0 W/m 0,0 km/h (0 Bft) 93,62 %
14.01.2022 18:32 3,2 C 2,8 C 3,3 C 100 % 1035,4 hPa 0,0 l/m 0 min 0 min 0 W/m 0,0 km/h (0 Bft) 91,49 %
14.01.2022 18:34 3,2 C 3,3 C 3,3 C 100 % 1035,4 hPa 0,0 l/m 0 min 0 min 0 W/m 0,0 km/h (0 Bft) 93,62 %
14.01.2022 18:36 3,2 C 3,3 C 3,3 C 100 % 1035,4 hPa 0,0 l/m 0 min 0 min 0 W/m 0,0 km/h (0 Bft) 95,74 %
14.01.2022 18:38 3,2 C 3,3 C 3,3 C 100 % 1035,3 hPa 0,0 l/m 0 min 0 min 0 W/m 0,0 km/h (0 Bft) 93,62 %
14.01.2022 18:40 3,2 C 3,3 C 3,3 C 100 % 1035,3 hPa 0,0 l/m 0 min 0 min 0 W/m 0,0 km/h (0 Bft) 95,74 %
14.01.2022 18:42 3,2 C 3,3 C 3,3 C 100 % 1035,3 hPa 0,0 l/m 0 min 0 min 0 W/m 0,0 km/h (0 Bft) 95,74 %
14.01.2022 18:44 3,3 C 3,3 C 3,3 C 100 % 1035,3 hPa 0,0 l/m 0 min 0 min 0 W/m 0,0 km/h (0 Bft) 93,48 %
14.01.2022 18:46 3,3 C 3,3 C 3,3 C 100 % 1035,3 hPa 0,0 l/m 0 min 0 min 0 W/m 0,0 km/h (0 Bft) 95,74 %
14.01.2022 18:48 3,3 C 3,3 C 3,3 C 100 % 1035,3 hPa 0,0 l/m 0 min 0 min 0 W/m 0,0 km/h (0 Bft) 95,74 %
14.01.2022 18:50 3,3 C 3,3 C 3,3 C 100 % 1035,3 hPa 0,0 l/m 0 min 0 min 0 W/m 0,0 km/h (0 Bft) 95,74 %
14.01.2022 18:52 3,3 C 3,3 C 3,3 C 100 % 1035,2 hPa 0,0 l/m 0 min 0 min 0 W/m 0,0 km/h (0 Bft) 95,74 %
14.01.2022 18:54 3,3 C 2,8 C 3,3 C 100 % 1035,3 hPa 0,0 l/m 0 min 0 min 0 W/m 0,0 km/h (0 Bft) 100,00 %
14.01.2022 18:56 3,3 C 2,8 C 3,3 C 100 % 1035,3 hPa 0,0 l/m 0 min 0 min 0 W/m 0,0 km/h (0 Bft) 100,00 %
14.01.2022 18:58 3,2 C 2,8 C 3,3 C 100 % 1035,2 hPa 0,0 l/m 0 min 0 min 0 W/m 0,0 km/h (0 Bft) 97,87 %
14.01.2022 19:00 3,2 C 3,3 C 3,3 C 100 % 1035,2 hPa 0,0 l/m 0 min 0 min 0 W/m 0,0 km/h (0 Bft) 91,49 %
14.01.2022 19:02 3,2 C 3,3 C 3,3 C 100 % 1035,2 hPa 0,0 l/m 0 min 0 min 0 W/m 0,0 km/h (0 Bft) 100,00 %
14.01.2022 19:04 3,3 C 3,3 C 3,3 C 100 % 1035,2 hPa 0,0 l/m 0 min 0 min 0 W/m 0,0 km/h (0 Bft) 100,00 %
14.01.2022 19:06 3,3 C 3,3 C 3,3 C 100 % 1035,2 hPa 0,0 l/m 0 min 0 min 0 W/m 0,0 km/h (0 Bft) 100,00 %
14.01.2022 19:08 3,3 C 3,3 C 3,3 C 100 % 1035,2 hPa 0,0 l/m 0 min 0 min 0 W/m 0,0 km/h (0 Bft) 97,83 %
14.01.2022 19:10 3,3 C 3,3 C 3,3 C 100 % 1035,2 hPa 0,0 l/m 0 min 0 min 0 W/m 0,0 km/h (0 Bft) 100,00 %
14.01.2022 19:12 3,3 C 3,3 C 3,3 C 100 % 1035,2 hPa 0,0 l/m 0 min 0 min 0 W/m 0,0 km/h (0 Bft) 100,00 %
14.01.2022 19:14 3,3 C 3,3 C 3,3 C 100 % 1035,3 hPa 0,0 l/m 0 min 0 min 0 W/m 0,0 km/h (0 Bft) 100,00 %
14.01.2022 19:16 3,3 C 3,3 C 3,3 C 100 % 1035,2 hPa 0,0 l/m 0 min 0 min 0 W/m 0,0 km/h (0 Bft) 100,00 %
14.01.2022 19:18 3,3 C 3,3 C 3,3 C 100 % 1035,3 hPa 0,0 l/m 0 min 0 min 0 W/m 0,0 km/h (0 Bft) 97,87 %
14.01.2022 19:20 3,3 C 3,3 C 3,3 C 100 % 1035,3 hPa 0,0 l/m 0 min 0 min 0 W/m 0,0 km/h (0 Bft) 100,00 %
14.01.2022 19:22 3,3 C 3,3 C 3,3 C 100 % 1035,3 hPa 0,0 l/m 0 min 0 min 0 W/m 0,0 km/h (0 Bft) 100,00 %
14.01.2022 19:24 3,3 C 3,3 C 3,3 C 100 % 1035,2 hPa 0,0 l/m 0 min 0 min 0 W/m 0,0 km/h (0 Bft) 100,00 %
14.01.2022 19:26 3,3 C 3,3 C 3,3 C 100 % 1035,2 hPa 0,0 l/m 0 min 0 min 0 W/m 0,0 km/h (0 Bft) 97,87 %
14.01.2022 19:28 3,3 C 3,3 C 3,3 C 100 % 1035,2 hPa 0,0 l/m 0 min 0 min 0 W/m 0,0 km/h (0 Bft) 100,00 %
14.01.2022 19:30 3,3 C 3,3 C 3,3 C 100 % 1035,2 hPa 0,0 l/m 0 min 0 min 0 W/m 0,0 km/h (0 Bft) 100,00 %
14.01.2022 19:32 3,3 C 3,3 C 3,3 C 100 % 1035,2 hPa 0,0 l/m 0 min 0 min 0 W/m 0,0 km/h (0 Bft) 100,00 %
14.01.2022 19:34 3,2 C 3,3 C 3,3 C 100 % 1035,2 hPa 0,0 l/m 0 min 0 min 0 W/m 0,0 km/h (0 Bft) 100,00 %
14.01.2022 19:36 3,2 C 3,3 C 3,3 C 100 % 1035,3 hPa 0,0 l/m 0 min 0 min 0 W/m 0,0 km/h (0 Bft) 100,00 %
14.01.2022 19:38 3,2 C 3,3 C 3,3 C 100 % 1035,2 hPa 0,0 l/m 0 min 0 min 0 W/m 0,0 km/h (0 Bft) 100,00 %
14.01.2022 19:40 3,2 C 3,3 C 3,3 C 100 % 1035,2 hPa 0,0 l/m 0 min 0 min 0 W/m 0,0 km/h (0 Bft) 100,00 %
14.01.2022 19:42 3,2 C 3,3 C 3,3 C 100 % 1035,2 hPa 0,0 l/m 0 min 0 min 0 W/m 0,0 km/h (0 Bft) 100,00 %
14.01.2022 19:44 3,2 C 3,3 C 3,3 C 100 % 1035,2 hPa 0,0 l/m 0 min 0 min 0 W/m 0,0 km/h (0 Bft) 100,00 %
14.01.2022 19:46 3,2 C 3,3 C 3,3 C 100 % 1035,2 hPa 0,0 l/m 0 min 0 min 0 W/m 0,0 km/h (0 Bft) 97,87 %
14.01.2022 19:48 3,2 C 3,3 C 3,3 C 100 % 1035,1 hPa 0,0 l/m 0 min 0 min 0 W/m 0,0 km/h (0 Bft) 100,00 %
14.01.2022 19:50 3,2 C 3,3 C 3,3 C 100 % 1035,1 hPa 0,0 l/m 0 min 0 min 0 W/m 0,0 km/h (0 Bft) 100,00 %
14.01.2022 19:52 3,2 C 3,3 C 3,3 C 100 % 1035,0 hPa 0,0 l/m 0 min 0 min 0 W/m 0,0 km/h (0 Bft) 100,00 %
14.01.2022 19:54 3,2 C 3,3 C 3,3 C 100 % 1035,0 hPa 0,0 l/m 0 min 0 min 0 W/m 0,0 km/h (0 Bft) 100,00 %
14.01.2022 19:56 3,2 C 3,3 C 3,3 C 100 % 1035,0 hPa 0,0 l/m 0 min 0 min 0 W/m 0,0 km/h (0 Bft) 100,00 %
14.01.2022 19:58 3,2 C 3,3 C 3,3 C 100 % 1035,1 hPa 0,0 l/m 0 min 0 min 0 W/m 0,0 km/h (0 Bft) 100,00 %
14.01.2022 20:00 3,2 C 3,3 C 3,3 C 100 % 1035,1 hPa 0,0 l/m 0 min 0 min 0 W/m 0,0 km/h (0 Bft) 100,00 %
14.01.2022 20:02 3,2 C 3,3 C 3,3 C 100 % 1035,1 hPa 0,0 l/m 0 min 0 min 0 W/m 0,0 km/h (0 Bft) 100,00 %
14.01.2022 20:04 3,2 C 3,3 C 3,3 C 100 % 1035,1 hPa 0,0 l/m 0 min 0 min 0 W/m 0,0 km/h (0 Bft) 95,74 %
14.01.2022 20:06 3,2 C 3,3 C 3,3 C 100 % 1035,0 hPa 0,0 l/m 0 min 0 min 0 W/m 0,0 km/h (0 Bft) 95,74 %
14.01.2022 20:08 3,2 C 2,8 C 3,3 C 100 % 1035,0 hPa 0,0 l/m 0 min 0 min 0 W/m 0,0 km/h (0 Bft) 100,00 %
14.01.2022 20:10 3,1 C 2,8 C 3,3 C 100 % 1035,0 hPa 0,0 l/m 0 min 0 min 0 W/m 0,0 km/h (0 Bft) 100,00 %
14.01.2022 20:12 3,1 C 3,3 C 3,3 C 100 % 1035,0 hPa 0,0 l/m 0 min 0 min 0 W/m 0,0 km/h (0 Bft) 97,87 %
14.01.2022 20:14 3,1 C 3,3 C 3,3 C 100 % 1035,0 hPa 0,0 l/m 0 min 0 min 0 W/m 0,0 km/h (0 Bft) 97,87 %
14.01.2022 20:16 3,1 C 3,3 C 3,3 C 100 % 1034,9 hPa 0,0 l/m 0 min 0 min 0 W/m 0,0 km/h (0 Bft) 91,49 %
14.01.2022 20:18 3,1 C 2,8 C 3,3 C 100 % 1034,9 hPa 0,0 l/m 0 min 0 min 0 W/m 0,0 km/h (0 Bft) 97,87 %
14.01.2022 20:20 3,1 C 2,8 C 3,3 C 100 % 1035,0 hPa 0,0 l/m 0 min 0 min 0 W/m 0,0 km/h (0 Bft) 97,83 %
14.01.2022 20:22 3,1 C 2,8 C 3,3 C 100 % 1035,0 hPa 0,0 l/m 0 min 0 min 0 W/m 0,0 km/h (0 Bft) 97,87 %
14.01.2022 20:24 3,1 C 2,8 C 3,3 C 100 % 1034,9 hPa 0,0 l/m 0 min 0 min 0 W/m 0,0 km/h (0 Bft) 95,74 %
14.01.2022 20:26 3,1 C 2,8 C 3,3 C 100 % 1034,9 hPa 0,0 l/m 0 min 0 min 0 W/m 0,0 km/h (0 Bft) 89,36 %
14.01.2022 20:28 3,1 C 2,8 C 3,3 C 100 % 1034,9 hPa 0,0 l/m 0 min 0 min 0 W/m 0,0 km/h (0 Bft) 95,74 %
14.01.2022 20:30 3,1 C 2,8 C 3,3 C 100 % 1034,9 hPa 0,0 l/m 0 min 0 min 0 W/m 0,0 km/h (0 Bft) 93,62 %
14.01.2022 20:32 3,1 C 2,8 C 3,3 C 100 % 1034,8 hPa 0,0 l/m 0 min 0 min 0 W/m 0,0 km/h (0 Bft) 93,48 %
14.01.2022 20:34 3,1 C 2,8 C 3,3 C 100 % 1034,8 hPa 0,0 l/m 0 min 0 min 0 W/m 0,0 km/h (0 Bft) 93,62 %
14.01.2022 20:36 3,1 C 2,8 C 3,3 C 100 % 1034,8 hPa 0,0 l/m 0 min 0 min 0 W/m 0,0 km/h (0 Bft) 95,74 %
14.01.2022 20:38 3,1 C 2,8 C 3,3 C 100 % 1034,8 hPa 0,0 l/m 0 min 0 min 0 W/m 0,0 km/h (0 Bft) 95,74 %
14.01.2022 20:40 3,1 C 2,8 C 3,3 C 100 % 1034,7 hPa 0,0 l/m 0 min 0 min 0 W/m 0,0 km/h (0 Bft) 93,62 %
14.01.2022 20:42 3,1 C 2,8 C 3,3 C 100 % 1034,7 hPa 0,0 l/m 0 min 0 min 0 W/m 0,0 km/h (0 Bft) 95,65 %
14.01.2022 20:44 3,1 C 2,8 C 3,3 C 100 % 1034,7 hPa 0,0 l/m 0 min 0 min 0 W/m 0,0 km/h (0 Bft) 97,87 %
14.01.2022 20:46 3,1 C 2,8 C 3,3 C 100 % 1034,8 hPa 0,0 l/m 0 min 0 min 0 W/m 0,0 km/h (0 Bft) 97,87 %
14.01.2022 20:48 3,1 C 2,8 C 3,3 C 100 % 1034,8 hPa 0,0 l/m 0 min 0 min 0 W/m 0,0 km/h (0 Bft) 97,87 %
14.01.2022 20:50 3,0 C 2,8 C 3,3 C 100 % 1034,8 hPa 0,0 l/m 0 min 0 min 0 W/m 0,0 km/h (0 Bft) 97,87 %
14.01.2022 20:52 3,0 C 2,8 C 3,3 C 100 % 1034,7 hPa 0,0 l/m 0 min 0 min 0 W/m 0,0 km/h (0 Bft) 97,87 %
14.01.2022 20:54 3,0 C 2,8 C 3,3 C 100 % 1034,7 hPa 0,0 l/m 0 min 0 min 0 W/m 0,0 km/h (0 Bft) 95,65 %
14.01.2022 20:56 3,0 C 2,8 C 3,3 C 100 % 1034,7 hPa 0,0 l/m 0 min 0 min 0 W/m 0,0 km/h (0 Bft) 97,87 %
14.01.2022 20:58 3,0 C 2,8 C 3,3 C 100 % 1034,7 hPa 0,0 l/m 0 min 0 min 0 W/m 0,0 km/h (0 Bft) 98,00 %
14.01.2022 21:00 3,0 C 2,8 C 3,3 C 100 % 1034,8 hPa 0,0 l/m 0 min 0 min 0 W/m 0,0 km/h (0 Bft) 97,87 %
14.01.2022 21:02 3,0 C 2,8 C 3,3 C 100 % 1034,7 hPa 0,0 l/m 0 min 0 min 0 W/m 0,0 km/h (0 Bft) 95,83 %
14.01.2022 21:04 3,0 C 2,8 C 3,3 C 100 % 1034,7 hPa 0,0 l/m 0 min 0 min 0 W/m 0,0 km/h (0 Bft) 97,87 %
14.01.2022 21:06 3,0 C 2,8 C 3,3 C 100 % 1034,7 hPa 0,0 l/m 0 min 0 min 0 W/m 0,0 km/h (0 Bft) 100,00 %
14.01.2022 21:08 3,0 C 2,8 C 2,8 C 100 % 1034,7 hPa 0,0 l/m 0 min 0 min 0 W/m 0,0 km/h (0 Bft) 100,00 %
14.01.2022 21:10 3,0 C 2,8 C 2,8 C 100 % 1034,7 hPa 0,0 l/m 0 min 0 min 0 W/m 0,0 km/h (0 Bft) 100,00 %
14.01.2022 21:12 3,0 C 2,8 C 2,8 C 100 % 1034,7 hPa 0,0 l/m 0 min 0 min 0 W/m 0,0 km/h (0 Bft) 97,87 %
14.01.2022 21:14 3,0 C 2,8 C 3,3 C 100 % 1034,6 hPa 0,0 l/m 0 min 0 min 0 W/m 0,0 km/h (0 Bft) 97,87 %
14.01.2022 21:16 3,0 C 2,8 C 2,8 C 100 % 1034,6 hPa 0,0 l/m 0 min 0 min 0 W/m 0,0 km/h (0 Bft) 97,87 %
14.01.2022 21:18 3,0 C 2,8 C 2,8 C 100 % 1034,6 hPa 0,0 l/m 0 min 0 min 0 W/m 0,0 km/h (0 Bft) 97,87 %
14.01.2022 21:20 3,0 C 2,8 C 3,3 C 100 % 1034,6 hPa 0,0 l/m 0 min 0 min 0 W/m 0,0 km/h (0 Bft) 95,65 %
14.01.2022 21:22 3,0 C 2,8 C 2,8 C 100 % 1034,6 hPa 0,0 l/m 0 min 0 min 0 W/m 0,0 km/h (0 Bft) 97,87 %
14.01.2022 21:24 3,0 C 2,8 C 2,8 C 100 % 1034,6 hPa 0,0 l/m 0 min 0 min 0 W/m 0,0 km/h (0 Bft) 97,87 %
14.01.2022 21:26 3,0 C 2,8 C 2,8 C 100 % 1034,6 hPa 0,0 l/m 0 min 0 min 0 W/m 0,0 km/h (0 Bft) 97,87 %
14.01.2022 21:28 3,0 C 2,8 C 2,8 C 100 % 1034,5 hPa 0,0 l/m 0 min 0 min 0 W/m 0,0 km/h (0 Bft) 97,87 %
14.01.2022 21:30 3,0 C 2,8 C 2,8 C 100 % 1034,5 hPa 0,0 l/m 0 min 0 min 0 W/m 0,0 km/h (0 Bft) 97,87 %
14.01.2022 21:32 3,0 C 2,8 C 2,8 C 100 % 1034,5 hPa 0,0 l/m 0 min 0 min 0 W/m 0,0 km/h (0 Bft) 97,87 %
14.01.2022 21:34 3,0 C 2,8 C 2,8 C 100 % 1034,5 hPa 0,0 l/m 0 min 0 min 0 W/m 0,0 km/h (0 Bft) 97,87 %
14.01.2022 21:36 3,0 C 2,8 C 2,8 C 100 % 1034,5 hPa 0,0 l/m 0 min 0 min 0 W/m 0,0 km/h (0 Bft) 97,87 %
14.01.2022 21:38 2,9 C 2,8 C 2,8 C 100 % 1034,4 hPa 0,0 l/m 0 min 0 min 0 W/m 0,0 km/h (0 Bft) 95,74 %
14.01.2022 21:40 2,9 C 2,8 C 2,8 C 100 % 1034,4 hPa 0,0 l/m 0 min 0 min 0 W/m 0,0 km/h (0 Bft) 97,87 %
14.01.2022 21:42 2,9 C 2,8 C 2,8 C 100 % 1034,4 hPa 0,0 l/m 0 min 0 min 0 W/m 0,0 km/h (0 Bft) 97,87 %
14.01.2022 21:44 2,9 C 2,8 C 2,8 C 100 % 1034,3 hPa 0,0 l/m 0 min 0 min 0 W/m 0,0 km/h (0 Bft) 97,83 %
14.01.2022 21:46 2,9 C 2,8 C 2,8 C 100 % 1034,4 hPa 0,0 l/m 0 min 0 min 0 W/m 0,0 km/h (0 Bft) 97,87 %
14.01.2022 21:48 2,9 C 2,8 C 2,8 C 100 % 1034,3 hPa 0,0 l/m 0 min 0 min 0 W/m 0,0 km/h (0 Bft) 95,74 %
14.01.2022 21:50 2,9 C 2,8 C 2,8 C 100 % 1034,2 hPa 0,0 l/m 0 min 0 min 0 W/m 0,0 km/h (0 Bft) 97,87 %
14.01.2022 21:52 2,9 C 2,8 C 2,8 C 100 % 1034,3 hPa 0,0 l/m 0 min 0 min 0 W/m 0,0 km/h (0 Bft) 97,87 %
14.01.2022 21:54 2,9 C 2,8 C 2,8 C 100 % 1034,3 hPa 0,0 l/m 0 min 0 min 0 W/m 0,0 km/h (0 Bft) 95,74 %
14.01.2022 21:56 2,9 C 2,8 C 2,8 C 100 % 1034,3 hPa 0,0 l/m 0 min 0 min 0 W/m 0,0 km/h (0 Bft) 95,65 %
14.01.2022 21:58 2,9 C 2,8 C 2,8 C 100 % 1034,2 hPa 0,0 l/m 0 min 0 min 0 W/m 0,0 km/h (0 Bft) 97,62 %
14.01.2022 22:00 3,0 C 2,8 C 2,8 C 100 % 1034,2 hPa 0,0 l/m 0 min 0 min 0 W/m 0,0 km/h (0 Bft) 95,74 %
14.01.2022 22:02 3,0 C 2,8 C 2,8 C 100 % 1034,3 hPa 0,0 l/m 0 min 0 min 0 W/m 0,0 km/h (0 Bft) 94,34 %
14.01.2022 22:04 3,0 C 2,8 C 2,8 C 100 % 1034,3 hPa 0,0 l/m 0 min 0 min 0 W/m 0,0 km/h (0 Bft) 95,74 %
14.01.2022 22:06 3,0 C 2,8 C 2,8 C 100 % 1034,3 hPa 0,0 l/m 0 min 0 min 0 W/m 0,0 km/h (0 Bft) 95,74 %
14.01.2022 22:08 3,0 C 2,8 C 2,8 C 100 % 1034,3 hPa 0,0 l/m 0 min 0 min 0 W/m 0,0 km/h (0 Bft) 95,65 %
14.01.2022 22:10 3,0 C 2,8 C 2,8 C 100 % 1034,3 hPa 0,0 l/m 0 min 0 min 0 W/m 3,2 km/h (1 Bft) 97,87 %
14.01.2022 22:12 2,9 C 2,8 C 2,8 C 100 % 1034,3 hPa 0,0 l/m 0 min 0 min 0 W/m 0,0 km/h (0 Bft) 95,74 %
14.01.2022 22:14 2,9 C 2,8 C 2,8 C 100 % 1034,3 hPa 0,0 l/m 0 min 0 min 0 W/m 0,0 km/h (0 Bft) 93,62 %
14.01.2022 22:16 2,9 C 2,8 C 2,8 C 100 % 1034,4 hPa 0,0 l/m 0 min 0 min 0 W/m 0,0 km/h (0 Bft) 95,74 %
14.01.2022 22:18 2,9 C 2,8 C 2,8 C 100 % 1034,3 hPa 0,0 l/m 0 min 0 min 0 W/m 0,0 km/h (0 Bft) 97,83 %
14.01.2022 22:20 2,9 C 2,8 C 2,8 C 100 % 1034,3 hPa 0,0 l/m 0 min 0 min 0 W/m 0,0 km/h (0 Bft) 97,87 %
14.01.2022 22:22 2,9 C 2,8 C 2,8 C 100 % 1034,3 hPa 0,0 l/m 0 min 0 min 0 W/m 0,0 km/h (0 Bft) 97,87 %
14.01.2022 22:24 2,9 C 2,8 C 2,8 C 100 % 1034,3 hPa 0,0 l/m 0 min 0 min 0 W/m 0,0 km/h (0 Bft) 97,87 %
14.01.2022 22:26 2,9 C 2,8 C 2,8 C 100 % 1034,3 hPa 0,0 l/m 0 min 0 min 0 W/m 0,0 km/h (0 Bft) 95,74 %
14.01.2022 22:28 2,9 C 2,8 C 2,8 C 100 % 1034,3 hPa 0,0 l/m 0 min 0 min 0 W/m 6,4 km/h (2 Bft) 97,87 %
14.01.2022 22:30 2,9 C 2,8 C 2,8 C 100 % 1034,3 hPa 0,0 l/m 0 min 0 min 0 W/m 6,4 km/h (2 Bft) 97,83 %
14.01.2022 22:32 2,9 C 2,8 C 2,8 C 100 % 1034,3 hPa 0,0 l/m 0 min 0 min 0 W/m 0,0 km/h (0 Bft) 97,92 %
14.01.2022 22:34 2,9 C 2,8 C 2,8 C 100 % 1034,3 hPa 0,0 l/m 0 min 0 min 0 W/m 0,0 km/h (0 Bft) 100,00 %
14.01.2022 22:36 2,9 C 2,8 C 2,8 C 100 % 1034,2 hPa 0,0 l/m 0 min 0 min 0 W/m 0,0 km/h (0 Bft) 100,00 %
14.01.2022 22:38 2,9 C 2,8 C 2,8 C 100 % 1034,3 hPa 0,0 l/m 0 min 0 min 0 W/m 0,0 km/h (0 Bft) 100,00 %
14.01.2022 22:40 2,9 C 2,8 C 2,8 C 100 % 1034,2 hPa 0,0 l/m 0 min 0 min 0 W/m 0,0 km/h (0 Bft) 100,00 %
14.01.2022 22:42 2,8 C 2,2 C 2,8 C 100 % 1034,2 hPa 0,0 l/m 0 min 0 min 0 W/m 0,0 km/h (0 Bft) 95,65 %
14.01.2022 22:44 2,9 C 2,2 C 2,8 C 100 % 1034,1 hPa 0,0 l/m 0 min 0 min 0 W/m 0,0 km/h (0 Bft) 100,00 %
14.01.2022 22:46 2,8 C 2,2 C 2,8 C 100 % 1034,1 hPa 0,0 l/m 0 min 0 min 0 W/m 0,0 km/h (0 Bft) 100,00 %
14.01.2022 22:51 2,8 C 2,8 C 2,8 C 100 % 1034,1 hPa 0,0 l/m 0 min 0 min 0 W/m 0,0 km/h (0 Bft) 92,86 %
14.01.2022 22:52 2,8 C 2,8 C 2,8 C 100 % 1034,1 hPa 0,0 l/m 0 min 0 min 0 W/m 0,0 km/h (0 Bft) 95,65 %
14.01.2022 22:54 2,8 C 2,8 C 2,8 C 100 % 1034,1 hPa 0,0 l/m 0 min 0 min 0 W/m 0,0 km/h (0 Bft) 93,62 %
14.01.2022 22:56 2,8 C 2,8 C 2,8 C 100 % 1034,2 hPa 0,0 l/m 0 min 0 min 0 W/m 0,0 km/h (0 Bft) 97,87 %
14.01.2022 22:58 2,8 C 2,2 C 2,8 C 100 % 1034,2 hPa 0,0 l/m 0 min 0 min 0 W/m 0,0 km/h (0 Bft) 97,87 %
14.01.2022 23:00 2,8 C 2,2 C 2,8 C 100 % 1034,1 hPa 0,0 l/m 0 min 0 min 0 W/m 0,0 km/h (0 Bft) 97,87 %
14.01.2022 23:02 2,8 C 2,2 C 2,8 C 100 % 1034,1 hPa 0,0 l/m 0 min 0 min 0 W/m 0,0 km/h (0 Bft) 95,83 %
14.01.2022 23:04 2,8 C 2,2 C 2,8 C 100 % 1034,1 hPa 0,0 l/m 0 min 0 min 0 W/m 0,0 km/h (0 Bft) 97,83 %
14.01.2022 23:06 2,8 C 2,2 C 2,8 C 100 % 1034,1 hPa 0,0 l/m 0 min 0 min 0 W/m 0,0 km/h (0 Bft) 97,87 %
14.01.2022 23:08 2,8 C 2,2 C 2,8 C 100 % 1034,1 hPa 0,0 l/m 0 min 0 min 0 W/m 0,0 km/h (0 Bft) 97,87 %
14.01.2022 23:10 2,8 C 2,2 C 2,8 C 100 % 1034,0 hPa 0,0 l/m 0 min 0 min 0 W/m 0,0 km/h (0 Bft) 97,87 %
14.01.2022 23:12 2,8 C 2,2 C 2,8 C 100 % 1034,0 hPa 0,0 l/m 0 min 0 min 0 W/m 0,0 km/h (0 Bft) 95,74 %
14.01.2022 23:14 2,8 C 2,2 C 2,8 C 100 % 1034,0 hPa 0,0 l/m 0 min 0 min 0 W/m 0,0 km/h (0 Bft) 97,87 %
14.01.2022 23:16 2,8 C 2,2 C 2,8 C 100 % 1034,0 hPa 0,0 l/m 0 min 0 min 0 W/m 0,0 km/h (0 Bft) 95,65 %
14.01.2022 23:18 2,8 C 2,2 C 2,8 C 100 % 1034,1 hPa 0,0 l/m 0 min 0 min 0 W/m 0,0 km/h (0 Bft) 97,92 %
14.01.2022 23:20 2,8 C 2,2 C 2,8 C 100 % 1034,0 hPa 0,0 l/m 0 min 0 min 0 W/m 0,0 km/h (0 Bft) 97,87 %
14.01.2022 23:22 2,8 C 2,8 C 2,8 C 100 % 1034,0 hPa 0,0 l/m 0 min 0 min 0 W/m 0,0 km/h (0 Bft) 97,87 %
14.01.2022 23:24 2,8 C 2,8 C 2,8 C 100 % 1034,0 hPa 0,0 l/m 0 min 0 min 0 W/m 0,0 km/h (0 Bft) 97,87 %
14.01.2022 23:26 2,8 C 2,8 C 2,8 C 100 % 1034,0 hPa 0,0 l/m 0 min 0 min 0 W/m 0,0 km/h (0 Bft) 95,65 %
14.01.2022 23:28 2,8 C 2,8 C 2,8 C 100 % 1034,0 hPa 0,0 l/m 0 min 0 min 0 W/m 0,0 km/h (0 Bft) 95,74 %
14.01.2022 23:30 2,8 C 2,8 C 2,8 C 100 % 1034,0 hPa 0,0 l/m 0 min 0 min 0 W/m 0,0 km/h (0 Bft) 97,87 %
14.01.2022 23:32 2,8 C 2,8 C 2,8 C 100 % 1034,0 hPa 0,0 l/m 0 min 0 min 0 W/m 0,0 km/h (0 Bft) 97,92 %
14.01.2022 23:34 2,8 C 2,8 C 2,8 C 100 % 1034,0 hPa 0,0 l/m 0 min 0 min 0 W/m 0,0 km/h (0 Bft) 97,87 %
14.01.2022 23:36 2,8 C 2,8 C 2,8 C 100 % 1034,0 hPa 0,0 l/m 0 min 0 min 0 W/m 0,0 km/h (0 Bft) 100,00 %
14.01.2022 23:38 2,7 C 2,8 C 2,8 C 100 % 1034,0 hPa 0,0 l/m 0 min 0 min 0 W/m 0,0 km/h (0 Bft) 100,00 %
14.01.2022 23:40 2,7 C 2,2 C 2,8 C 100 % 1034,0 hPa 0,0 l/m 0 min 0 min 0 W/m 0,0 km/h (0 Bft) 100,00 %
14.01.2022 23:42 2,8 C 2,2 C 2,8 C 100 % 1034,0 hPa 0,0 l/m 0 min 0 min 0 W/m 0,0 km/h (0 Bft) 95,74 %
14.01.2022 23:44 2,7 C 2,2 C 2,8 C 100 % 1034,0 hPa 0,0 l/m 0 min 0 min 0 W/m 0,0 km/h (0 Bft) 100,00 %
14.01.2022 23:46 2,7 C 2,2 C 2,8 C 100 % 1034,0 hPa 0,0 l/m 0 min 0 min 0 W/m 0,0 km/h (0 Bft) 100,00 %
14.01.2022 23:48 2,7 C 2,2 C 2,8 C 100 % 1034,0 hPa 0,0 l/m 0 min 0 min 0 W/m 0,0 km/h (0 Bft) 100,00 %
14.01.2022 23:50 2,7 C 2,2 C 2,8 C 100 % 1034,0 hPa 0,0 l/m 0 min 0 min 0 W/m 0,0 km/h (0 Bft) 100,00 %
14.01.2022 23:52 2,7 C 2,2 C 2,8 C 100 % 1034,1 hPa 0,0 l/m 0 min 0 min 0 W/m 0,0 km/h (0 Bft) 97,87 %
14.01.2022 23:54 2,7 C 2,2 C 2,8 C 100 % 1034,0 hPa 0,0 l/m 0 min 0 min 0 W/m 0,0 km/h (0 Bft) 100,00 %
14.01.2022 23:56 2,7 C 2,2 C 2,8 C 100 % 1034,0 hPa 0,0 l/m 0 min 0 min 0 W/m 12,9 km/h (3 Bft) 97,87 %
14.01.2022 23:58 2,7 C 2,2 C 2,8 C 100 % 1034,0 hPa 0,0 l/m 0 min 0 min 0 W/m 6,4 km/h (2 Bft) 97,87 %
_ Min-Zeit 07:48 05:16 05:26 00:00 23:10 - - - - 01:36 06:10
Minimum _ 0,6 C 0,0 C 0,6 C 98 % 1034,0 hPa - - - - 0,0 km/h (0 Bft) 33,33 %
_ Max-Zeit 14:56 14:16 14:06 10:12 00:00 00:00 00:00 00:00 14:04 00:22 00:56
Maximum _ 3,3 C 3,3 C 3,3 C 100 % 1039,1 hPa 0,0 l/m 0 min 0 min 62 W/m 19,3 km/h
SW (3 Bft)
100,00 %
Durchschnitt _ 2,0 C 1,8 C 2,1 C 100 % 1036,3 hPa #0,0 l/m #0 min. #0 min. 36 W/m 2,8 km/h (1 Bft) 97,03 %
© 2022 W. Hausmann